Time,TemperatureF,DewpointF,PressureIn,WindDirection,WindDirectionDegrees,WindSpeedMPH,WindSpeedGustMPH,Humidity,HourlyPrecipIn,Conditions,Clouds,dailyrainin,SoftwareType,DateUTC
2013-03-14 00:03:00,27.9,15.0,29.50,WSW,248,2.5,2.5,58,0.00,,---,0.00,VWS V14.01,2013-03-14 05:03:00,
2013-03-14 00:08:00,27.7,14.9,29.50,West,270,2.9,2.9,58,0.00,,---,0.00,VWS V14.01,2013-03-14 05:08:00,
2013-03-14 00:13:00,27.7,14.9,29.50,West,270,2.5,4.0,58,0.00,,---,0.00,VWS V14.01,2013-03-14 05:13:00,
2013-03-14 00:18:00,27.7,14.9,29.50,West,270,2.2,2.2,58,0.00,,---,0.00,VWS V14.01,2013-03-14 05:18:00,
2013-03-14 00:23:00,27.7,14.9,29.50,West,270,2.2,2.2,58,0.00,,---,0.00,VWS V14.01,2013-03-14 05:23:00,
2013-03-14 00:28:00,27.5,15.1,29.50,West,270,0.0,0.0,59,0.00,,---,0.00,VWS V14.01,2013-03-14 05:28:00,
2013-03-14 00:33:00,27.5,15.1,29.50,West,270,0.0,0.0,59,0.00,,---,0.00,VWS V14.01,2013-03-14 05:33:00,
2013-03-14 00:38:00,27.3,14.9,29.50,West,270,0.0,1.6,59,0.00,,---,0.00,VWS V14.01,2013-03-14 05:38:00,
2013-03-14 00:43:00,27.3,14.9,29.50,West,270,2.0,2.0,59,0.00,,---,0.00,VWS V14.01,2013-03-14 05:43:00,
2013-03-14 00:49:00,27.3,14.9,29.50,West,270,0.0,0.0,59,0.00,,---,0.00,VWS V14.01,2013-03-14 05:49:00,
2013-03-14 00:54:00,27.1,14.7,29.50,West,270,0.0,0.0,59,0.00,,---,0.00,VWS V14.01,2013-03-14 05:54:00,
2013-03-14 00:59:00,27.1,15.1,29.50,West,270,0.0,0.0,60,0.00,,---,0.00,VWS V14.01,2013-03-14 05:59:00,
2013-03-14 01:04:00,27.0,14.9,29.50,West,270,0.0,0.0,60,0.00,,---,0.00,VWS V14.01,2013-03-14 06:04:00,
2013-03-14 01:09:00,26.8,14.8,29.50,West,270,0.0,0.0,60,0.00,,---,0.00,VWS V14.01,2013-03-14 06:09:00,
2013-03-14 01:14:00,26.8,14.8,29.50,West,270,0.0,0.0,60,0.00,,---,0.00,VWS V14.01,2013-03-14 06:14:00,
2013-03-14 01:19:00,26.4,14.8,29.50,West,270,0.0,0.0,61,0.00,,---,0.00,VWS V14.01,2013-03-14 06:19:00,
2013-03-14 01:24:00,26.1,14.8,29.50,West,270,0.0,0.0,62,0.00,,---,0.00,VWS V14.01,2013-03-14 06:24:00,
2013-03-14 01:29:00,25.7,14.5,29.50,West,270,0.0,0.0,62,0.00,,---,0.00,VWS V14.01,2013-03-14 06:29:00,
2013-03-14 01:34:00,25.7,14.5,29.50,West,270,0.0,0.0,62,0.00,,---,0.00,VWS V14.01,2013-03-14 06:34:00,
2013-03-14 01:39:00,25.5,14.7,29.50,West,270,0.0,0.0,63,0.00,,---,0.00,VWS V14.01,2013-03-14 06:39:00,
2013-03-14 01:44:00,25.3,14.5,29.50,West,270,0.0,0.0,63,0.00,,---,0.00,VWS V14.01,2013-03-14 06:44:00,
2013-03-14 01:49:00,25.2,14.4,29.50,West,270,0.0,0.0,63,0.00,,---,0.00,VWS V14.01,2013-03-14 06:49:00,
2013-03-14 01:55:00,25.0,14.5,29.50,West,270,0.0,0.0,64,0.00,,---,0.00,VWS V14.01,2013-03-14 06:55:00,
2013-03-14 02:00:00,25.0,14.5,29.50,West,270,0.0,0.0,64,0.00,,---,0.00,VWS V14.01,2013-03-14 07:00:00,
2013-03-14 02:05:00,24.8,14.4,29.50,West,270,0.0,0.0,64,0.00,,---,0.00,VWS V14.01,2013-03-14 07:05:00,
2013-03-14 02:10:00,24.6,14.6,29.50,West,270,0.0,0.0,65,0.00,,---,0.00,VWS V14.01,2013-03-14 07:10:00,
2013-03-14 02:15:00,24.4,14.4,29.47,West,270,0.0,0.0,65,0.00,,---,0.00,VWS V14.01,2013-03-14 07:15:00,
2013-03-14 02:20:00,24.4,14.4,29.47,West,270,0.0,0.0,65,0.00,,---,0.00,VWS V14.01,2013-03-14 07:20:00,
2013-03-14 02:25:00,24.4,14.7,29.47,West,270,0.0,0.0,66,0.00,,---,0.00,VWS V14.01,2013-03-14 07:25:00,
2013-03-14 02:30:00,24.4,14.7,29.50,West,270,0.0,0.0,66,0.00,,---,0.00,VWS V14.01,2013-03-14 07:30:00,
2013-03-14 02:35:00,24.4,14.7,29.50,West,270,0.0,0.0,66,0.00,,---,0.00,VWS V14.01,2013-03-14 07:35:00,
2013-03-14 02:40:00,24.4,15.4,29.50,West,270,0.0,0.0,68,0.00,,---,0.00,VWS V14.01,2013-03-14 07:40:00,
2013-03-14 02:45:00,24.3,14.9,29.50,West,270,0.0,0.0,67,0.00,,---,0.00,VWS V14.01,2013-03-14 07:45:00,
2013-03-14 02:50:00,24.4,15.4,29.50,SSE,158,1.6,2.2,68,0.00,,---,0.00,VWS V14.01,2013-03-14 07:50:00,
2013-03-14 02:55:00,24.3,15.2,29.50,SSE,158,0.0,0.0,68,0.00,,---,0.00,VWS V14.01,2013-03-14 07:55:00,
2013-03-14 03:00:00,24.3,15.2,29.47,SSE,158,0.0,0.0,68,0.00,,---,0.00,VWS V14.01,2013-03-14 08:00:00,
2013-03-14 03:05:00,24.3,15.2,29.47,SSE,158,0.0,0.0,68,0.00,,---,0.00,VWS V14.01,2013-03-14 08:05:00,
2013-03-14 03:10:00,24.3,15.6,29.47,South,180,0.0,0.0,69,0.00,,---,0.00,VWS V14.01,2013-03-14 08:10:00,
2013-03-14 03:15:00,24.4,16.1,29.50,SW,225,0.0,0.0,70,0.00,,---,0.00,VWS V14.01,2013-03-14 08:15:00,
2013-03-14 03:20:00,24.3,15.9,29.50,SW,225,0.0,0.0,70,0.00,,---,0.00,VWS V14.01,2013-03-14 08:20:00,
2013-03-14 03:25:00,24.4,16.1,29.50,SW,225,0.0,0.0,70,0.00,,---,0.00,VWS V14.01,2013-03-14 08:25:00,
2013-03-14 03:31:00,24.4,15.7,29.47,SW,225,0.0,0.0,69,0.00,,---,0.00,VWS V14.01,2013-03-14 08:31:00,
2013-03-14 03:36:00,24.4,15.7,29.47,SW,225,0.0,0.0,69,0.00,,---,0.00,VWS V14.01,2013-03-14 08:36:00,
2013-03-14 03:41:00,24.4,16.1,29.47,SW,225,0.0,0.0,70,0.00,,---,0.00,VWS V14.01,2013-03-14 08:41:00,
2013-03-14 03:46:00,24.4,16.1,29.47,SW,225,0.0,0.0,70,0.00,,---,0.00,VWS V14.01,2013-03-14 08:46:00,
2013-03-14 03:51:00,24.4,16.1,29.47,SW,225,0.0,0.0,70,0.00,,---,0.00,VWS V14.01,2013-03-14 08:51:00,
2013-03-14 03:56:00,24.4,16.1,29.47,SW,225,0.0,0.0,70,0.00,,---,0.00,VWS V14.01,2013-03-14 08:56:00,
2013-03-14 04:01:00,24.6,16.2,29.47,SW,225,0.0,0.0,70,0.00,,---,0.00,VWS V14.01,2013-03-14 09:01:00,
2013-03-14 04:07:00,24.8,16.4,29.47,SW,225,0.0,0.0,70,0.00,,---,0.00,VWS V14.01,2013-03-14 09:07:00,
2013-03-14 04:12:00,24.6,16.2,29.47,SW,225,0.0,0.0,70,0.00,,---,0.00,VWS V14.01,2013-03-14 09:12:00,
2013-03-14 04:17:00,24.6,16.2,29.47,SW,225,0.0,0.0,70,0.00,,---,0.00,VWS V14.01,2013-03-14 09:17:00,
2013-03-14 04:22:00,24.6,16.2,29.47,SW,225,0.0,0.0,70,0.00,,---,0.00,VWS V14.01,2013-03-14 09:22:00,
2013-03-14 04:27:00,24.8,16.4,29.44,SW,225,0.0,0.0,70,0.00,,---,0.00,VWS V14.01,2013-03-14 09:27:00,
2013-03-14 04:32:00,24.6,16.2,29.44,SW,225,0.0,0.0,70,0.00,,---,0.00,VWS V14.01,2013-03-14 09:32:00,
2013-03-14 04:37:00,24.6,16.2,29.44,SW,225,0.0,0.0,70,0.00,,---,0.00,VWS V14.01,2013-03-14 09:37:00,
2013-03-14 04:42:00,24.6,16.2,29.44,SW,225,0.0,0.0,70,0.00,,---,0.00,VWS V14.01,2013-03-14 09:42:00,
2013-03-14 04:47:00,24.6,16.2,29.44,SW,225,0.0,0.0,70,0.00,,---,0.00,VWS V14.01,2013-03-14 09:47:00,
2013-03-14 04:52:00,24.6,16.2,29.44,SW,225,0.0,0.0,70,0.00,,---,0.00,VWS V14.01,2013-03-14 09:52:00,
2013-03-14 04:57:00,24.4,16.1,29.44,SW,225,0.0,0.0,70,0.00,,---,0.00,VWS V14.01,2013-03-14 09:57:00,
2013-03-14 05:02:00,24.4,16.1,29.44,SW,225,0.0,0.0,70,0.00,,---,0.00,VWS V14.01,2013-03-14 10:02:00,
2013-03-14 05:07:00,24.4,16.1,29.44,ESE,112,0.0,0.0,70,0.00,,---,0.00,VWS V14.01,2013-03-14 10:07:00,
2013-03-14 05:12:00,24.4,16.1,29.44,ESE,112,1.3,1.3,70,0.00,,---,0.00,VWS V14.01,2013-03-14 10:12:00,
2013-03-14 05:18:00,24.4,16.4,29.44,SE,135,0.0,0.0,71,0.00,,---,0.00,VWS V14.01,2013-03-14 10:18:00,
2013-03-14 05:23:00,24.4,16.4,29.44,SE,135,0.0,0.0,71,0.00,,---,0.00,VWS V14.01,2013-03-14 10:23:00,
2013-03-14 05:28:00,24.3,16.2,29.44,SE,135,0.0,0.0,71,0.00,,---,0.00,VWS V14.01,2013-03-14 10:28:00,
2013-03-14 05:33:00,24.4,16.7,29.44,SSE,158,0.0,0.0,72,0.00,,---,0.00,VWS V14.01,2013-03-14 10:33:00,
2013-03-14 05:38:00,24.4,16.7,29.44,SE,135,0.0,0.0,72,0.00,,---,0.00,VWS V14.01,2013-03-14 10:38:00,
2013-03-14 05:43:00,24.6,17.2,29.44,East,90,0.0,0.0,73,0.00,,---,0.00,VWS V14.01,2013-03-14 10:43:00,
2013-03-14 05:48:00,24.8,17.4,29.44,ESE,112,2.0,2.0,73,0.00,,---,0.00,VWS V14.01,2013-03-14 10:48:00,
2013-03-14 05:53:00,25.0,17.6,29.44,SE,135,0.0,0.0,73,0.00,,---,0.00,VWS V14.01,2013-03-14 10:53:00,
2013-03-14 05:58:00,25.2,17.7,29.44,East,90,0.0,0.0,73,0.00,,---,0.00,VWS V14.01,2013-03-14 10:58:00,
2013-03-14 06:03:00,25.3,17.9,29.44,East,90,0.0,0.0,73,0.00,,---,0.00,VWS V14.01,2013-03-14 11:03:00,
2013-03-14 06:08:00,25.7,18.6,29.44,East,90,0.0,0.0,74,0.00,,---,0.00,VWS V14.01,2013-03-14 11:08:00,
2013-03-14 06:13:00,25.9,19.1,29.44,WSW,248,1.3,1.3,75,0.00,,---,0.00,VWS V14.01,2013-03-14 11:13:00,
2013-03-14 06:18:00,26.1,19.2,29.44,SSW,202,0.0,0.0,75,0.00,,---,0.00,VWS V14.01,2013-03-14 11:18:00,
2013-03-14 06:23:00,26.1,19.2,29.44,South,180,0.0,0.0,75,0.00,,---,0.00,VWS V14.01,2013-03-14 11:23:00,
2013-03-14 06:28:00,26.4,19.6,29.44,South,180,0.0,0.0,75,0.00,,---,0.00,VWS V14.01,2013-03-14 11:28:00,
2013-03-14 06:33:00,26.6,19.8,29.44,SE,135,0.9,0.9,75,0.00,,---,0.00,VWS V14.01,2013-03-14 11:33:00,
2013-03-14 06:38:00,26.6,19.8,29.44,ESE,112,0.0,0.0,75,0.00,,---,0.00,VWS V14.01,2013-03-14 11:38:00,
2013-03-14 06:43:00,26.6,19.8,29.44,ESE,112,0.0,0.0,75,0.00,,---,0.00,VWS V14.01,2013-03-14 11:43:00,
2013-03-14 06:48:00,26.8,19.9,29.44,ESE,112,0.0,0.0,75,0.00,,---,0.00,VWS V14.01,2013-03-14 11:48:00,
2013-03-14 06:53:00,26.8,19.9,29.44,East,90,0.0,0.0,75,0.00,,---,0.00,VWS V14.01,2013-03-14 11:53:00,
2013-03-14 06:58:00,27.0,20.1,29.44,East,90,0.0,0.0,75,0.00,,---,0.00,VWS V14.01,2013-03-14 11:58:00,
2013-03-14 07:04:00,27.0,20.1,29.44,East,90,0.0,0.0,75,0.00,,---,0.00,VWS V14.01,2013-03-14 12:04:00,
2013-03-14 07:09:00,27.1,20.3,29.44,East,90,0.0,0.0,75,0.00,,---,0.00,VWS V14.01,2013-03-14 12:09:00,
2013-03-14 07:14:00,27.1,20.3,29.44,East,90,0.0,0.0,75,0.00,,---,0.00,VWS V14.01,2013-03-14 12:14:00,
2013-03-14 07:19:00,27.3,20.5,29.44,SE,135,1.3,2.0,75,0.00,,---,0.00,VWS V14.01,2013-03-14 12:19:00,
2013-03-14 07:24:00,27.5,20.6,29.44,South,180,0.0,1.6,75,0.00,,---,0.00,VWS V14.01,2013-03-14 12:24:00,
2013-03-14 07:29:00,27.7,20.8,29.44,SSE,158,0.0,2.0,75,0.00,,---,0.00,VWS V14.01,2013-03-14 12:29:00,
2013-03-14 07:34:00,27.9,21.0,29.44,SSE,158,2.0,2.0,75,0.00,,---,0.00,VWS V14.01,2013-03-14 12:34:00,
2013-03-14 07:36:00,27.9,21.0,29.44,South,180,0.0,0.0,75,0.00,,---,0.00,VWS V14.01,2013-03-14 12:36:00,
2013-03-14 07:38:00,27.9,21.0,29.44,East,90,0.0,0.0,75,0.00,,---,0.00,VWS V14.01,2013-03-14 12:38:00,
2013-03-14 07:39:00,27.9,21.0,29.44,ESE,112,2.5,2.5,75,0.00,,---,0.00,VWS V14.01,2013-03-14 12:39:00,
2013-03-14 07:40:00,28.0,21.1,29.44,SE,135,3.1,3.1,75,0.00,,---,0.00,VWS V14.01,2013-03-14 12:40:00,
2013-03-14 07:41:00,28.0,21.1,29.44,East,90,0.9,3.1,75,0.00,,---,0.00,VWS V14.01,2013-03-14 12:41:00,
2013-03-14 07:42:00,28.0,21.1,29.44,East,90,2.5,2.5,75,0.00,,---,0.00,VWS V14.01,2013-03-14 12:42:00,
2013-03-14 07:43:00,28.0,21.1,29.44,ESE,112,1.3,2.5,75,0.00,,---,0.00,VWS V14.01,2013-03-14 12:43:00,
2013-03-14 07:44:00,28.0,21.1,29.44,SE,135,2.5,2.5,75,0.00,,---,0.00,VWS V14.01,2013-03-14 12:44:00,
2013-03-14 07:45:00,28.2,21.0,29.44,SSE,158,2.0,2.5,74,0.00,,---,0.00,VWS V14.01,2013-03-14 12:45:00,
2013-03-14 07:46:00,28.2,21.0,29.44,SE,135,2.7,2.7,74,0.00,,---,0.00,VWS V14.01,2013-03-14 12:46:00,
2013-03-14 07:47:00,28.2,21.3,29.44,South,180,2.0,2.7,75,0.00,,---,0.00,VWS V14.01,2013-03-14 12:47:00,
2013-03-14 07:48:00,28.2,21.3,29.44,South,180,0.0,2.0,75,0.00,,---,0.00,VWS V14.01,2013-03-14 12:48:00,
2013-03-14 07:49:00,28.4,21.5,29.44,South,180,0.0,0.0,75,0.00,,---,0.00,VWS V14.01,2013-03-14 12:49:00,
2013-03-14 07:50:00,28.4,21.5,29.44,South,180,0.0,0.0,75,0.00,,---,0.00,VWS V14.01,2013-03-14 12:50:00,
2013-03-14 07:51:00,28.4,21.5,29.44,East,90,1.6,1.6,75,0.00,,---,0.00,VWS V14.01,2013-03-14 12:51:00,
2013-03-14 07:52:00,28.4,21.5,29.44,East,90,0.0,1.6,75,0.00,,---,0.00,VWS V14.01,2013-03-14 12:52:00,
2013-03-14 07:53:00,28.4,21.5,29.44,East,90,0.0,0.0,75,0.00,,---,0.00,VWS V14.01,2013-03-14 12:53:00,
2013-03-14 07:54:00,28.6,21.4,29.44,East,90,1.6,1.6,74,0.00,,---,0.00,VWS V14.01,2013-03-14 12:54:00,
2013-03-14 07:55:00,28.6,21.4,29.44,SE,135,1.1,1.6,74,0.00,,---,0.00,VWS V14.01,2013-03-14 12:55:00,
2013-03-14 07:56:00,28.6,21.4,29.44,ESE,112,1.6,1.6,74,0.00,,---,0.00,VWS V14.01,2013-03-14 12:56:00,
2013-03-14 07:57:00,28.6,21.4,29.44,ESE,112,0.0,1.6,74,0.00,,---,0.00,VWS V14.01,2013-03-14 12:57:00,
2013-03-14 07:58:00,28.6,21.4,29.44,ESE,112,0.0,0.0,74,0.00,,---,0.00,VWS V14.01,2013-03-14 12:58:00,
2013-03-14 07:59:00,28.6,21.4,29.44,SE,135,2.7,2.7,74,0.00,,---,0.00,VWS V14.01,2013-03-14 12:59:00,
2013-03-14 08:00:00,28.6,21.4,29.44,ESE,112,2.0,2.7,74,0.00,,---,0.00,VWS V14.01,2013-03-14 13:00:00,
2013-03-14 08:01:00,28.6,21.4,29.44,ESE,112,0.0,2.0,74,0.00,,---,0.00,VWS V14.01,2013-03-14 13:01:00,
2013-03-14 08:02:00,28.6,21.4,29.44,ESE,112,0.0,0.0,74,0.00,,---,0.00,VWS V14.01,2013-03-14 13:02:00,
2013-03-14 08:03:00,28.8,21.5,29.44,ESE,112,0.0,0.0,74,0.00,,---,0.00,VWS V14.01,2013-03-14 13:03:00,
2013-03-14 08:04:00,28.8,21.5,29.44,ESE,112,0.0,0.0,74,0.00,,---,0.00,VWS V14.01,2013-03-14 13:04:00,
2013-03-14 08:05:00,28.8,21.5,29.44,SE,135,1.1,1.1,74,0.00,,---,0.00,VWS V14.01,2013-03-14 13:05:00,
2013-03-14 08:06:00,28.8,21.5,29.44,SE,135,2.0,2.0,74,0.00,,---,0.00,VWS V14.01,2013-03-14 13:06:00,
2013-03-14 08:07:00,28.8,21.5,29.44,SE,135,0.0,2.0,74,0.00,,---,0.00,VWS V14.01,2013-03-14 13:07:00,
2013-03-14 08:08:00,28.9,21.7,29.44,SSE,158,1.3,1.3,74,0.00,,---,0.00,VWS V14.01,2013-03-14 13:08:00,
2013-03-14 08:09:00,28.9,21.7,29.44,East,90,1.1,1.6,74,0.00,,---,0.00,VWS V14.01,2013-03-14 13:09:00,
2013-03-14 08:10:00,28.9,21.7,29.44,East,90,1.1,1.6,74,0.00,,---,0.00,VWS V14.01,2013-03-14 13:10:00,
2013-03-14 08:11:00,28.9,21.7,29.44,SSE,158,2.5,2.5,74,0.00,,---,0.00,VWS V14.01,2013-03-14 13:11:00,
2013-03-14 08:12:00,28.9,21.7,29.44,ESE,112,3.4,3.4,74,0.00,,---,0.00,VWS V14.01,2013-03-14 13:12:00,
2013-03-14 08:13:00,29.1,21.9,29.44,SE,135,2.9,3.4,74,0.00,,---,0.00,VWS V14.01,2013-03-14 13:13:00,
2013-03-14 08:14:00,29.1,21.9,29.44,SE,135,2.5,2.5,74,0.00,,---,0.00,VWS V14.01,2013-03-14 13:14:00,
2013-03-14 08:15:00,29.3,22.1,29.44,SSE,158,1.3,2.5,74,0.00,,---,0.00,VWS V14.01,2013-03-14 13:15:00,
2013-03-14 08:16:00,29.3,22.1,29.44,SE,135,1.1,1.3,74,0.00,,---,0.00,VWS V14.01,2013-03-14 13:16:00,
2013-03-14 08:17:00,29.3,22.1,29.44,SE,135,2.0,2.0,74,0.00,,---,0.00,VWS V14.01,2013-03-14 13:17:00,
2013-03-14 08:18:00,29.3,22.1,29.44,SE,135,0.0,2.0,74,0.00,,---,0.00,VWS V14.01,2013-03-14 13:18:00,
2013-03-14 08:19:00,29.5,22.2,29.44,ENE,68,1.3,1.3,74,0.00,,---,0.00,VWS V14.01,2013-03-14 13:19:00,
2013-03-14 08:20:00,29.5,22.2,29.44,SSE,158,0.0,1.3,74,0.00,,---,0.00,VWS V14.01,2013-03-14 13:20:00,
2013-03-14 08:21:00,29.5,22.2,29.44,SE,135,0.0,0.0,74,0.00,,---,0.00,VWS V14.01,2013-03-14 13:21:00,
2013-03-14 08:22:00,29.5,22.2,29.44,SE,135,2.0,2.0,74,0.00,,---,0.00,VWS V14.01,2013-03-14 13:22:00,
2013-03-14 08:23:00,29.5,22.2,29.44,SSE,158,1.6,2.0,74,0.00,,---,0.00,VWS V14.01,2013-03-14 13:23:00,
2013-03-14 08:24:00,29.7,22.4,29.44,SE,135,2.5,2.5,74,0.00,,---,0.00,VWS V14.01,2013-03-14 13:24:00,
2013-03-14 08:25:00,29.7,22.4,29.44,SE,135,2.5,2.5,74,0.00,,---,0.00,VWS V14.01,2013-03-14 13:25:00,
2013-03-14 08:26:00,29.7,22.1,29.44,SE,135,1.1,2.5,73,0.00,,---,0.00,VWS V14.01,2013-03-14 13:26:00,
2013-03-14 08:27:00,29.7,22.1,29.47,East,90,0.9,1.1,73,0.00,,---,0.00,VWS V14.01,2013-03-14 13:27:00,
2013-03-14 08:28:00,29.8,22.2,29.47,SSE,158,1.6,2.0,73,0.00,,---,0.00,VWS V14.01,2013-03-14 13:28:00,
2013-03-14 08:29:00,29.8,22.2,29.47,SSE,158,1.6,1.6,73,0.00,,---,0.00,VWS V14.01,2013-03-14 13:29:00,
2013-03-14 08:30:00,29.8,22.2,29.47,ESE,112,2.7,2.7,73,0.00,,---,0.00,VWS V14.01,2013-03-14 13:30:00,
2013-03-14 08:31:00,30.0,22.4,29.47,ESE,112,2.0,2.9,73,0.00,,---,0.00,VWS V14.01,2013-03-14 13:31:00,
2013-03-14 08:32:00,30.0,22.4,29.47,South,180,3.8,3.8,73,0.00,,---,0.00,VWS V14.01,2013-03-14 13:32:00,
2013-03-14 08:33:00,30.0,22.4,29.47,SE,135,2.5,3.8,73,0.00,,---,0.00,VWS V14.01,2013-03-14 13:33:00,
2013-03-14 08:34:00,30.0,22.4,29.47,ESE,112,3.8,3.8,73,0.00,,---,0.00,VWS V14.01,2013-03-14 13:34:00,
2013-03-14 08:35:00,30.0,22.4,29.47,SE,135,3.6,3.8,73,0.00,,---,0.00,VWS V14.01,2013-03-14 13:35:00,
2013-03-14 08:36:00,30.2,22.6,29.47,SE,135,2.5,3.6,73,0.00,,---,0.00,VWS V14.01,2013-03-14 13:36:00,
2013-03-14 08:37:00,30.2,22.6,29.47,SE,135,2.7,2.7,73,0.00,,---,0.00,VWS V14.01,2013-03-14 13:37:00,
2013-03-14 08:38:00,30.2,22.3,29.47,South,180,2.7,2.7,72,0.00,,---,0.00,VWS V14.01,2013-03-14 13:38:00,
2013-03-14 08:39:00,30.2,22.3,29.47,ESE,112,2.5,2.7,72,0.00,,---,0.00,VWS V14.01,2013-03-14 13:39:00,
2013-03-14 08:40:00,30.2,22.3,29.47,SE,135,2.2,2.5,72,0.00,,---,0.00,VWS V14.01,2013-03-14 13:40:00,
2013-03-14 08:41:00,30.2,22.3,29.47,SSE,158,2.9,2.9,72,0.00,,---,0.00,VWS V14.01,2013-03-14 13:41:00,
2013-03-14 08:42:00,30.2,22.3,29.44,ESE,112,2.2,2.9,72,0.00,,---,0.00,VWS V14.01,2013-03-14 13:42:00,
2013-03-14 08:43:00,30.2,22.3,29.44,ESE,112,1.6,2.2,72,0.00,,---,0.00,VWS V14.01,2013-03-14 13:43:00,
2013-03-14 08:45:00,30.4,22.5,29.44,SW,225,2.9,2.9,72,0.00,,---,0.00,VWS V14.01,2013-03-14 13:45:00,
2013-03-14 08:46:00,30.4,22.5,29.44,SE,135,4.0,4.0,72,0.00,,---,0.00,VWS V14.01,2013-03-14 13:46:00,
2013-03-14 08:47:00,30.4,22.5,29.44,SE,135,3.1,4.0,72,0.00,,---,0.00,VWS V14.01,2013-03-14 13:47:00,
2013-03-14 08:48:00,30.4,22.5,29.44,SSE,158,3.8,3.8,72,0.00,,---,0.00,VWS V14.01,2013-03-14 13:48:00,
2013-03-14 08:49:00,30.4,22.1,29.44,SSE,158,4.9,4.9,71,0.00,,---,0.00,VWS V14.01,2013-03-14 13:49:00,
2013-03-14 08:50:00,30.4,22.1,29.44,SSE,158,3.4,4.9,71,0.00,,---,0.00,VWS V14.01,2013-03-14 13:50:00,
2013-03-14 08:52:00,30.6,22.6,29.44,South,180,5.4,5.4,72,0.00,,---,0.00,VWS V14.01,2013-03-14 13:52:00,
2013-03-14 08:53:00,30.6,22.6,29.44,SSE,158,3.1,5.4,72,0.00,,---,0.00,VWS V14.01,2013-03-14 13:53:00,
2013-03-14 08:54:00,30.6,22.3,29.44,SSW,202,2.7,3.1,71,0.00,,---,0.00,VWS V14.01,2013-03-14 13:54:00,
2013-03-14 08:55:00,30.6,22.3,29.44,SE,135,2.2,2.7,71,0.00,,---,0.00,VWS V14.01,2013-03-14 13:55:00,
2013-03-14 08:56:00,30.6,22.3,29.44,South,180,1.3,2.2,71,0.00,,---,0.00,VWS V14.01,2013-03-14 13:56:00,
2013-03-14 08:57:00,30.6,22.3,29.47,SSE,158,2.0,2.0,71,0.00,,---,0.00,VWS V14.01,2013-03-14 13:57:00,
2013-03-14 08:58:00,30.6,22.3,29.47,SSE,158,3.1,3.1,71,0.00,,---,0.00,VWS V14.01,2013-03-14 13:58:00,
2013-03-14 08:59:00,30.6,22.3,29.47,SSE,158,3.8,3.8,71,0.00,,---,0.00,VWS V14.01,2013-03-14 13:59:00,
2013-03-14 09:00:00,30.7,22.5,29.47,SW,225,1.6,3.8,71,0.00,,---,0.00,VWS V14.01,2013-03-14 14:00:00,
2013-03-14 09:01:00,30.7,22.5,29.47,SSE,158,1.1,1.6,71,0.00,,---,0.00,VWS V14.01,2013-03-14 14:01:00,
2013-03-14 09:02:00,30.7,22.5,29.47,South,180,2.2,2.2,71,0.00,,---,0.00,VWS V14.01,2013-03-14 14:02:00,
2013-03-14 09:03:00,30.7,22.5,29.47,SSW,202,2.9,2.9,71,0.00,,---,0.00,VWS V14.01,2013-03-14 14:03:00,
2013-03-14 09:04:00,30.7,22.5,29.47,SSW,202,3.4,3.4,71,0.00,,---,0.00,VWS V14.01,2013-03-14 14:04:00,
2013-03-14 09:05:00,30.9,22.6,29.47,SSW,202,3.4,3.4,71,0.00,,---,0.00,VWS V14.01,2013-03-14 14:05:00,
2013-03-14 09:06:00,31.1,22.8,29.47,South,180,2.7,3.4,71,0.00,,---,0.00,VWS V14.01,2013-03-14 14:06:00,
2013-03-14 09:07:00,31.1,22.8,29.47,South,180,2.5,2.7,71,0.00,,---,0.00,VWS V14.01,2013-03-14 14:07:00,
2013-03-14 09:08:00,31.1,22.8,29.47,SSE,158,2.0,2.5,71,0.00,,---,0.00,VWS V14.01,2013-03-14 14:08:00,
2013-03-14 09:09:00,31.1,22.8,29.47,South,180,3.1,3.1,71,0.00,,---,0.00,VWS V14.01,2013-03-14 14:09:00,
2013-03-14 09:10:00,31.1,22.8,29.47,South,180,4.0,4.0,71,0.00,,---,0.00,VWS V14.01,2013-03-14 14:10:00,
2013-03-14 09:11:00,31.1,22.8,29.47,SSE,158,2.2,4.0,71,0.00,,---,0.00,VWS V14.01,2013-03-14 14:11:00,
2013-03-14 09:12:00,31.3,23.0,29.47,SSW,202,1.6,2.2,71,0.00,,---,0.00,VWS V14.01,2013-03-14 14:12:00,
2013-03-14 09:13:00,31.3,23.0,29.47,South,180,3.1,3.1,71,0.00,,---,0.00,VWS V14.01,2013-03-14 14:13:00,
2013-03-14 09:14:00,31.5,23.2,29.47,South,180,2.2,3.1,71,0.00,,---,0.00,VWS V14.01,2013-03-14 14:14:00,
2013-03-14 09:15:00,31.6,23.3,29.47,South,180,2.5,2.5,71,0.00,,---,0.00,VWS V14.01,2013-03-14 14:15:00,
2013-03-14 09:16:00,31.6,23.3,29.47,SE,135,2.0,2.5,71,0.00,,---,0.00,VWS V14.01,2013-03-14 14:16:00,
2013-03-14 09:17:00,31.6,23.3,29.47,SSE,158,2.7,2.7,71,0.00,,---,0.00,VWS V14.01,2013-03-14 14:17:00,
2013-03-14 09:18:00,31.6,23.3,29.47,South,180,3.1,3.1,71,0.00,,---,0.00,VWS V14.01,2013-03-14 14:18:00,
2013-03-14 09:19:00,31.6,23.3,29.47,South,180,3.4,3.4,71,0.00,,---,0.00,VWS V14.01,2013-03-14 14:19:00,
2013-03-14 09:20:00,31.6,23.3,29.47,South,180,2.5,2.5,71,0.00,,---,0.00,VWS V14.01,2013-03-14 14:20:00,
2013-03-14 09:21:00,31.6,23.3,29.47,SE,135,0.9,2.5,71,0.00,,---,0.00,VWS V14.01,2013-03-14 14:21:00,
2013-03-14 09:22:00,31.8,23.2,29.47,SSW,202,2.5,2.5,70,0.00,,---,0.00,VWS V14.01,2013-03-14 14:22:00,
2013-03-14 09:23:00,31.8,23.2,29.47,South,180,2.5,2.5,70,0.00,,---,0.00,VWS V14.01,2013-03-14 14:23:00,
2013-03-14 09:24:00,31.8,23.2,29.47,SSE,158,2.0,2.5,70,0.00,,---,0.00,VWS V14.01,2013-03-14 14:24:00,
2013-03-14 09:25:00,31.8,23.2,29.47,South,180,2.7,2.7,70,0.00,,---,0.00,VWS V14.01,2013-03-14 14:25:00,
2013-03-14 09:26:00,31.8,23.2,29.47,SSE,158,2.7,2.7,70,0.00,,---,0.00,VWS V14.01,2013-03-14 14:26:00,
2013-03-14 09:27:00,31.8,23.2,29.44,SSE,158,4.7,4.7,70,0.00,,---,0.00,VWS V14.01,2013-03-14 14:27:00,
2013-03-14 09:28:00,31.8,23.2,29.44,South,180,2.7,4.7,70,0.00,,---,0.00,VWS V14.01,2013-03-14 14:28:00,
2013-03-14 09:29:00,32.0,23.3,29.44,SSW,202,2.9,2.9,70,0.00,,---,0.00,VWS V14.01,2013-03-14 14:29:00,
2013-03-14 09:30:00,32.0,23.3,29.44,SSW,202,5.8,5.8,70,0.00,,---,0.00,VWS V14.01,2013-03-14 14:30:00,
2013-03-14 09:31:00,32.2,23.5,29.44,South,180,2.7,5.8,70,0.00,,---,0.00,VWS V14.01,2013-03-14 14:31:00,
2013-03-14 09:32:00,32.2,23.5,29.44,SSW,202,4.0,4.0,70,0.00,,---,0.00,VWS V14.01,2013-03-14 14:32:00,
2013-03-14 09:33:00,32.2,23.5,29.44,South,180,2.5,4.0,70,0.00,,---,0.00,VWS V14.01,2013-03-14 14:33:00,
2013-03-14 09:34:00,32.2,23.5,29.44,SE,135,2.9,2.9,70,0.00,,---,0.00,VWS V14.01,2013-03-14 14:34:00,
2013-03-14 09:35:00,32.4,23.7,29.44,ESE,112,2.5,3.1,70,0.00,,---,0.00,VWS V14.01,2013-03-14 14:35:00,
2013-03-14 09:36:00,32.4,23.3,29.44,ESE,112,2.5,3.1,69,0.00,,---,0.00,VWS V14.01,2013-03-14 14:36:00,
2013-03-14 09:37:00,32.4,23.3,29.44,South,180,1.6,2.5,69,0.00,,---,0.00,VWS V14.01,2013-03-14 14:37:00,
2013-03-14 09:38:00,32.5,23.5,29.44,SW,225,2.0,2.5,69,0.00,,---,0.00,VWS V14.01,2013-03-14 14:38:00,
2013-03-14 09:39:00,32.5,23.5,29.44,SE,135,4.3,4.3,69,0.00,,---,0.00,VWS V14.01,2013-03-14 14:39:00,
2013-03-14 09:40:00,32.7,23.7,29.44,SSW,202,3.4,3.4,69,0.00,,---,0.00,VWS V14.01,2013-03-14 14:40:00,
2013-03-14 09:41:00,32.7,23.7,29.44,SE,135,3.1,3.4,69,0.00,,---,0.00,VWS V14.01,2013-03-14 14:41:00,
2013-03-14 09:42:00,32.7,23.7,29.44,SE,135,3.6,3.6,69,0.00,,---,0.00,VWS V14.01,2013-03-14 14:42:00,
2013-03-14 09:43:00,32.7,23.3,29.44,ESE,112,4.0,4.0,68,0.00,,---,0.00,VWS V14.01,2013-03-14 14:43:00,
2013-03-14 09:44:00,32.7,23.3,29.44,SE,135,2.5,4.0,68,0.00,,---,0.00,VWS V14.01,2013-03-14 14:44:00,
2013-03-14 09:45:00,32.9,23.5,29.44,East,90,3.6,3.6,68,0.00,,---,0.00,VWS V14.01,2013-03-14 14:45:00,
2013-03-14 09:46:00,32.9,23.5,29.44,East,90,3.6,3.6,68,0.00,,---,0.00,VWS V14.01,2013-03-14 14:46:00,
2013-03-14 09:47:00,33.1,23.7,29.44,SE,135,2.5,3.6,68,0.00,,---,0.00,VWS V14.01,2013-03-14 14:47:00,
2013-03-14 09:48:00,33.1,23.7,29.44,South,180,4.0,4.0,68,0.00,,---,0.00,VWS V14.01,2013-03-14 14:48:00,
2013-03-14 09:49:00,33.1,23.7,29.44,South,180,3.8,4.0,68,0.00,,---,0.00,VWS V14.01,2013-03-14 14:49:00,
2013-03-14 09:50:00,33.1,23.7,29.44,SSE,158,4.3,4.3,68,0.00,,---,0.00,VWS V14.01,2013-03-14 14:50:00,
2013-03-14 09:51:00,33.1,23.7,29.44,SSE,158,4.3,4.3,68,0.00,,---,0.00,VWS V14.01,2013-03-14 14:51:00,
2013-03-14 09:52:00,33.3,23.9,29.44,SW,225,4.0,4.3,68,0.00,,---,0.00,VWS V14.01,2013-03-14 14:52:00,
2013-03-14 09:53:00,33.3,23.9,29.44,South,180,5.8,5.8,68,0.00,,---,0.00,VWS V14.01,2013-03-14 14:53:00,
2013-03-14 09:54:00,33.3,23.9,29.44,South,180,3.1,5.8,68,0.00,,---,0.00,VWS V14.01,2013-03-14 14:54:00,
2013-03-14 09:55:00,33.4,24.0,29.44,South,180,4.3,4.3,68,0.00,,---,0.00,VWS V14.01,2013-03-14 14:55:00,
2013-03-14 09:56:00,33.4,24.0,29.44,SSW,202,3.6,4.3,68,0.00,,---,0.00,VWS V14.01,2013-03-14 14:56:00,
2013-03-14 09:57:00,33.4,24.0,29.44,SSW,202,3.1,3.6,68,0.00,,---,0.00,VWS V14.01,2013-03-14 14:57:00,
2013-03-14 09:59:00,33.6,24.2,29.44,SSE,158,6.3,6.3,68,0.00,,---,0.00,VWS V14.01,2013-03-14 14:59:00,
2013-03-14 10:00:00,33.6,24.2,29.44,South,180,3.8,3.8,68,0.00,,---,0.00,VWS V14.01,2013-03-14 15:00:00,
2013-03-14 10:01:00,33.6,24.2,29.44,South,180,3.8,3.8,68,0.00,,---,0.00,VWS V14.01,2013-03-14 15:01:00,
2013-03-14 10:02:00,33.6,24.2,29.44,South,180,3.4,3.8,68,0.00,,---,0.00,VWS V14.01,2013-03-14 15:02:00,
2013-03-14 10:03:00,33.8,24.4,29.44,SSW,202,5.4,5.4,68,0.00,,---,0.00,VWS V14.01,2013-03-14 15:03:00,
2013-03-14 10:04:00,33.8,24.4,29.44,South,180,4.9,5.4,68,0.00,,---,0.00,VWS V14.01,2013-03-14 15:04:00,
2013-03-14 10:05:00,34.0,24.2,29.44,SSW,202,3.1,4.9,67,0.00,,---,0.00,VWS V14.01,2013-03-14 15:05:00,
2013-03-14 10:06:00,34.0,24.2,29.44,South,180,5.8,5.8,67,0.00,,---,0.00,VWS V14.01,2013-03-14 15:06:00,
2013-03-14 10:07:00,34.0,24.2,29.44,SSE,158,3.8,5.8,67,0.00,,---,0.00,VWS V14.01,2013-03-14 15:07:00,
2013-03-14 10:08:00,34.0,24.2,29.44,SW,225,2.7,3.8,67,0.00,,---,0.00,VWS V14.01,2013-03-14 15:08:00,
2013-03-14 10:09:00,34.0,24.2,29.44,SW,225,3.1,3.1,67,0.00,,---,0.00,VWS V14.01,2013-03-14 15:09:00,
2013-03-14 10:10:00,34.2,24.4,29.44,SSW,202,2.7,3.1,67,0.00,,---,0.00,VWS V14.01,2013-03-14 15:10:00,
2013-03-14 10:11:00,34.2,24.4,29.44,South,180,3.1,3.1,67,0.00,,---,0.00,VWS V14.01,2013-03-14 15:11:00,
2013-03-14 10:12:00,34.3,24.5,29.44,SW,225,7.2,7.2,67,0.00,,---,0.00,VWS V14.01,2013-03-14 15:12:00,
2013-03-14 10:13:00,34.3,24.5,29.44,South,180,6.0,7.2,67,0.00,,---,0.00,VWS V14.01,2013-03-14 15:13:00,
2013-03-14 10:14:00,34.5,24.7,29.44,SW,225,2.9,6.0,67,0.00,,---,0.00,VWS V14.01,2013-03-14 15:14:00,
2013-03-14 10:15:00,34.5,24.7,29.44,South,180,2.5,2.9,67,0.00,,---,0.00,VWS V14.01,2013-03-14 15:15:00,
2013-03-14 10:16:00,34.5,24.7,29.44,South,180,3.8,3.8,67,0.00,,---,0.00,VWS V14.01,2013-03-14 15:16:00,
2013-03-14 10:17:00,34.9,25.0,29.44,SSW,202,3.1,3.8,67,0.00,,---,0.00,VWS V14.01,2013-03-14 15:17:00,
2013-03-14 10:18:00,34.9,25.0,29.44,SW,225,4.0,4.0,67,0.00,,---,0.00,VWS V14.01,2013-03-14 15:18:00,
2013-03-14 10:19:00,34.9,24.7,29.44,SW,225,5.8,5.8,66,0.00,,---,0.00,VWS V14.01,2013-03-14 15:19:00,
2013-03-14 10:20:00,34.9,24.7,29.44,South,180,6.0,6.0,66,0.00,,---,0.00,VWS V14.01,2013-03-14 15:20:00,
2013-03-14 10:21:00,35.1,24.9,29.44,SW,225,3.6,3.6,66,0.00,,---,0.00,VWS V14.01,2013-03-14 15:21:00,
2013-03-14 10:22:00,35.2,25.0,29.44,South,180,6.5,6.5,66,0.00,,---,0.00,VWS V14.01,2013-03-14 15:22:00,
2013-03-14 10:23:00,35.2,25.0,29.44,SE,135,3.1,6.5,66,0.00,,---,0.00,VWS V14.01,2013-03-14 15:23:00,
2013-03-14 10:24:00,35.2,25.0,29.44,SW,225,2.9,3.1,66,0.00,,---,0.00,VWS V14.01,2013-03-14 15:24:00,
2013-03-14 10:25:00,35.2,25.0,29.44,SW,225,10.5,10.5,66,0.00,,---,0.00,VWS V14.01,2013-03-14 15:25:00,
2013-03-14 10:26:00,35.4,25.2,29.44,South,180,4.0,4.0,66,0.00,,---,0.00,VWS V14.01,2013-03-14 15:26:00,
2013-03-14 10:27:00,35.4,25.2,29.44,South,180,3.4,4.0,66,0.00,,---,0.00,VWS V14.01,2013-03-14 15:27:00,
2013-03-14 10:28:00,35.2,24.7,29.44,SSW,202,3.4,3.4,65,0.00,,---,0.00,VWS V14.01,2013-03-14 15:28:00,
2013-03-14 10:29:00,35.2,25.0,29.44,SSW,202,6.0,6.0,66,0.00,,---,0.00,VWS V14.01,2013-03-14 15:29:00,
2013-03-14 10:30:00,35.2,25.0,29.44,South,180,3.8,6.0,66,0.00,,---,0.00,VWS V14.01,2013-03-14 15:30:00,
2013-03-14 10:31:00,35.2,24.7,29.44,SE,135,6.0,6.0,65,0.00,,---,0.00,VWS V14.01,2013-03-14 15:31:00,
2013-03-14 10:32:00,35.2,24.7,29.44,SE,135,6.0,6.0,65,0.00,,---,0.00,VWS V14.01,2013-03-14 15:32:00,
2013-03-14 10:33:00,35.2,24.7,29.44,SSW,202,7.8,7.8,65,0.00,,---,0.00,VWS V14.01,2013-03-14 15:33:00,
2013-03-14 10:34:00,35.2,24.7,29.44,SSW,202,3.6,7.8,65,0.00,,---,0.00,VWS V14.01,2013-03-14 15:34:00,
2013-03-14 10:35:00,35.2,24.7,29.44,South,180,3.8,3.8,65,0.00,,---,0.00,VWS V14.01,2013-03-14 15:35:00,
2013-03-14 10:36:00,35.2,24.7,29.44,SSE,158,7.6,7.6,65,0.00,,---,0.00,VWS V14.01,2013-03-14 15:36:00,
2013-03-14 10:37:00,35.2,24.7,29.44,SSE,158,7.6,7.6,65,0.00,,---,0.00,VWS V14.01,2013-03-14 15:37:00,
2013-03-14 10:38:00,35.2,24.7,29.44,South,180,2.9,3.6,65,0.00,,---,0.00,VWS V14.01,2013-03-14 15:38:00,
2013-03-14 10:39:00,35.2,24.7,29.44,SSE,158,4.3,4.3,65,0.00,,---,0.00,VWS V14.01,2013-03-14 15:39:00,
2013-03-14 10:40:00,35.4,24.8,29.44,South,180,2.5,4.3,65,0.00,,---,0.00,VWS V14.01,2013-03-14 15:40:00,
2013-03-14 10:41:00,35.4,24.8,29.44,SSE,158,5.6,5.6,65,0.00,,---,0.00,VWS V14.01,2013-03-14 15:41:00,
2013-03-14 10:42:00,35.4,24.8,29.44,South,180,4.3,5.6,65,0.00,,---,0.00,VWS V14.01,2013-03-14 15:42:00,
2013-03-14 10:43:00,35.4,24.8,29.44,WSW,248,3.6,4.3,65,0.00,,---,0.00,VWS V14.01,2013-03-14 15:43:00,
2013-03-14 10:44:00,35.4,24.8,29.44,WSW,248,3.6,3.6,65,0.00,,---,0.00,VWS V14.01,2013-03-14 15:44:00,
2013-03-14 10:45:00,35.4,24.8,29.44,SSE,158,4.0,4.0,65,0.00,,---,0.00,VWS V14.01,2013-03-14 15:45:00,
2013-03-14 10:46:00,35.4,24.8,29.44,SSW,202,2.5,4.0,65,0.00,,---,0.00,VWS V14.01,2013-03-14 15:46:00,
2013-03-14 10:47:00,35.4,24.8,29.44,South,180,1.1,2.5,65,0.00,,---,0.00,VWS V14.01,2013-03-14 15:47:00,
2013-03-14 10:48:00,35.4,24.8,29.44,South,180,3.4,3.4,65,0.00,,---,0.00,VWS V14.01,2013-03-14 15:48:00,
2013-03-14 10:49:00,35.6,25.0,29.44,South,180,2.9,3.4,65,0.00,,---,0.00,VWS V14.01,2013-03-14 15:49:00,
2013-03-14 10:50:00,35.6,25.0,29.44,SSW,202,5.4,5.4,65,0.00,,---,0.00,VWS V14.01,2013-03-14 15:50:00,
2013-03-14 10:51:00,35.6,25.0,29.44,South,180,5.4,5.4,65,0.00,,---,0.00,VWS V14.01,2013-03-14 15:51:00,
2013-03-14 10:52:00,35.6,24.6,29.44,SSE,158,5.4,5.4,64,0.00,,---,0.00,VWS V14.01,2013-03-14 15:52:00,
2013-03-14 10:53:00,35.6,24.6,29.44,SSW,202,6.5,6.5,64,0.00,,---,0.00,VWS V14.01,2013-03-14 15:53:00,
2013-03-14 10:54:00,35.6,24.6,29.44,South,180,4.0,6.5,64,0.00,,---,0.00,VWS V14.01,2013-03-14 15:54:00,
2013-03-14 10:55:00,35.6,24.6,29.44,SSW,202,3.1,4.0,64,0.00,,---,0.00,VWS V14.01,2013-03-14 15:55:00,
2013-03-14 10:56:00,35.6,24.6,29.44,SSE,158,2.7,3.1,64,0.00,,---,0.00,VWS V14.01,2013-03-14 15:56:00,
2013-03-14 10:57:00,35.6,24.6,29.44,South,180,3.6,3.6,64,0.00,,---,0.00,VWS V14.01,2013-03-14 15:57:00,
2013-03-14 10:58:00,35.6,24.6,29.44,SSE,158,4.9,4.9,64,0.00,,---,0.00,VWS V14.01,2013-03-14 15:58:00,
2013-03-14 10:59:00,35.6,24.6,29.44,South,180,6.9,6.9,64,0.00,,---,0.00,VWS V14.01,2013-03-14 15:59:00,
2013-03-14 11:00:00,35.6,24.6,29.44,SSE,158,4.3,6.9,64,0.00,,---,0.00,VWS V14.01,2013-03-14 16:00:00,
2013-03-14 11:01:00,35.6,24.6,29.44,SW,225,6.5,6.5,64,0.00,,---,0.00,VWS V14.01,2013-03-14 16:01:00,
2013-03-14 11:02:00,35.6,24.6,29.44,SSE,158,7.8,7.8,64,0.00,,---,0.00,VWS V14.01,2013-03-14 16:02:00,
2013-03-14 11:03:00,35.6,24.3,29.44,SSW,202,11.9,11.9,63,0.00,,---,0.00,VWS V14.01,2013-03-14 16:03:00,
2013-03-14 11:04:00,35.6,24.3,29.44,SSE,158,3.8,11.9,63,0.00,,---,0.00,VWS V14.01,2013-03-14 16:04:00,
2013-03-14 11:05:00,35.6,24.6,29.44,SSE,158,6.9,6.9,64,0.00,,---,0.00,VWS V14.01,2013-03-14 16:05:00,
2013-03-14 11:06:00,35.6,24.6,29.44,SSE,158,5.8,6.9,64,0.00,,---,0.00,VWS V14.01,2013-03-14 16:06:00,
2013-03-14 11:07:00,35.6,24.3,29.44,SSW,202,5.6,5.8,63,0.00,,---,0.00,VWS V14.01,2013-03-14 16:07:00,
2013-03-14 11:08:00,35.8,24.4,29.44,SSW,202,2.9,5.6,63,0.00,,---,0.00,VWS V14.01,2013-03-14 16:08:00,
2013-03-14 11:09:00,35.8,24.4,29.44,South,180,4.3,4.3,63,0.00,,---,0.00,VWS V14.01,2013-03-14 16:09:00,
2013-03-14 11:10:00,36.0,24.6,29.44,SE,135,3.6,4.3,63,0.00,,---,0.00,VWS V14.01,2013-03-14 16:10:00,
2013-03-14 11:11:00,36.0,24.6,29.44,SE,135,5.4,5.4,63,0.00,,---,0.00,VWS V14.01,2013-03-14 16:11:00,
2013-03-14 11:12:00,36.1,24.8,29.41,SSW,202,3.8,5.4,63,0.00,,---,0.00,VWS V14.01,2013-03-14 16:12:00,
2013-03-14 11:13:00,36.1,24.8,29.41,SSW,202,3.8,5.4,63,0.00,,---,0.00,VWS V14.01,2013-03-14 16:13:00,
2013-03-14 11:14:00,36.1,24.8,29.41,South,180,11.0,11.0,63,0.00,,---,0.00,VWS V14.01,2013-03-14 16:14:00,
2013-03-14 11:15:00,36.1,24.8,29.41,South,180,7.2,11.0,63,0.00,,---,0.00,VWS V14.01,2013-03-14 16:15:00,
2013-03-14 11:16:00,36.1,24.8,29.41,SE,135,3.1,7.2,63,0.00,,---,0.00,VWS V14.01,2013-03-14 16:16:00,
2013-03-14 11:17:00,36.0,24.2,29.41,South,180,9.6,9.6,62,0.00,,---,0.00,VWS V14.01,2013-03-14 16:17:00,
2013-03-14 11:18:00,36.0,24.2,29.41,South,180,7.6,9.6,62,0.00,,---,0.00,VWS V14.01,2013-03-14 16:18:00,
2013-03-14 11:19:00,36.0,24.2,29.41,SSW,202,3.6,7.6,62,0.00,,---,0.00,VWS V14.01,2013-03-14 16:19:00,
2013-03-14 11:20:00,36.0,24.2,29.41,South,180,3.1,3.6,62,0.00,,---,0.00,VWS V14.01,2013-03-14 16:20:00,
2013-03-14 11:21:00,36.0,24.2,29.41,SSW,202,7.2,7.2,62,0.00,,---,0.00,VWS V14.01,2013-03-14 16:21:00,
2013-03-14 11:22:00,36.1,24.4,29.41,South,180,7.8,7.8,62,0.00,,---,0.00,VWS V14.01,2013-03-14 16:22:00,
2013-03-14 11:23:00,36.1,24.4,29.41,SSW,202,6.0,7.8,62,0.00,,---,0.00,VWS V14.01,2013-03-14 16:23:00,
2013-03-14 11:24:00,36.1,24.4,29.41,SSW,202,4.7,6.0,62,0.00,,---,0.00,VWS V14.01,2013-03-14 16:24:00,
2013-03-14 11:25:00,36.1,24.4,29.41,South,180,5.8,5.8,62,0.00,,---,0.00,VWS V14.01,2013-03-14 16:25:00,
2013-03-14 11:26:00,36.1,24.4,29.41,South,180,4.0,5.8,62,0.00,,---,0.00,VWS V14.01,2013-03-14 16:26:00,
2013-03-14 11:27:00,36.1,24.4,29.41,South,180,10.1,10.1,62,0.00,,---,0.00,VWS V14.01,2013-03-14 16:27:00,
2013-03-14 11:28:00,36.1,24.0,29.41,South,180,5.4,10.1,61,0.00,,---,0.00,VWS V14.01,2013-03-14 16:28:00,
2013-03-14 11:29:00,36.1,24.0,29.41,South,180,6.3,6.3,61,0.00,,---,0.00,VWS V14.01,2013-03-14 16:29:00,
2013-03-14 11:30:00,36.1,24.0,29.41,SSW,202,3.6,6.3,61,0.00,,---,0.00,VWS V14.01,2013-03-14 16:30:00,
2013-03-14 11:31:00,36.3,24.2,29.41,South,180,5.6,5.6,61,0.00,,---,0.00,VWS V14.01,2013-03-14 16:31:00,
2013-03-14 11:32:00,36.3,24.2,29.41,SSE,158,4.0,5.6,61,0.00,,---,0.00,VWS V14.01,2013-03-14 16:32:00,
2013-03-14 11:33:00,36.5,24.7,29.41,SSE,158,4.0,4.0,62,0.00,,---,0.00,VWS V14.01,2013-03-14 16:33:00,
2013-03-14 11:34:00,36.5,24.7,29.41,SSW,202,3.4,5.6,62,0.00,,---,0.00,VWS V14.01,2013-03-14 16:34:00,
2013-03-14 11:35:00,36.7,24.9,29.41,SW,225,7.8,7.8,62,0.00,,---,0.00,VWS V14.01,2013-03-14 16:35:00,
2013-03-14 11:36:00,36.7,24.9,29.41,SSW,202,7.6,7.8,62,0.00,,---,0.00,VWS V14.01,2013-03-14 16:36:00,
2013-03-14 11:37:00,36.9,24.7,29.41,SSW,202,4.9,7.6,61,0.00,,---,0.00,VWS V14.01,2013-03-14 16:37:00,
2013-03-14 11:38:00,36.9,24.7,29.41,SSW,202,2.5,4.9,61,0.00,,---,0.00,VWS V14.01,2013-03-14 16:38:00,
2013-03-14 11:39:00,36.9,24.7,29.41,South,180,7.8,7.8,61,0.00,,---,0.00,VWS V14.01,2013-03-14 16:39:00,
2013-03-14 11:40:00,37.0,24.9,29.41,SE,135,8.1,8.1,61,0.00,,---,0.00,VWS V14.01,2013-03-14 16:40:00,
2013-03-14 11:41:00,37.0,24.9,29.41,SW,225,1.3,8.1,61,0.00,,---,0.00,VWS V14.01,2013-03-14 16:41:00,
2013-03-14 11:42:00,37.0,24.9,29.41,SSW,202,8.1,8.1,61,0.00,,---,0.00,VWS V14.01,2013-03-14 16:42:00,
2013-03-14 11:43:00,37.0,24.9,29.41,South,180,7.6,8.1,61,0.00,,---,0.00,VWS V14.01,2013-03-14 16:43:00,
2013-03-14 11:44:00,36.9,24.7,29.41,South,180,3.1,7.6,61,0.00,,---,0.00,VWS V14.01,2013-03-14 16:44:00,
2013-03-14 11:45:00,36.9,24.7,29.41,South,180,3.1,3.1,61,0.00,,---,0.00,VWS V14.01,2013-03-14 16:45:00,
2013-03-14 11:46:00,36.9,24.7,29.41,ENE,68,4.3,4.3,61,0.00,,---,0.00,VWS V14.01,2013-03-14 16:46:00,
2013-03-14 11:47:00,36.7,24.5,29.41,ESE,112,5.8,5.8,61,0.00,,---,0.00,VWS V14.01,2013-03-14 16:47:00,
2013-03-14 11:48:00,36.7,24.5,29.41,SSW,202,3.6,5.8,61,0.00,,---,0.00,VWS V14.01,2013-03-14 16:48:00,
2013-03-14 11:49:00,36.7,24.5,29.41,South,180,3.6,3.6,61,0.00,,---,0.00,VWS V14.01,2013-03-14 16:49:00,
2013-03-14 11:50:00,36.7,24.5,29.41,SW,225,2.7,3.6,61,0.00,,---,0.00,VWS V14.01,2013-03-14 16:50:00,
2013-03-14 11:51:00,36.7,24.5,29.41,SE,135,4.3,4.3,61,0.00,,---,0.00,VWS V14.01,2013-03-14 16:51:00,
2013-03-14 11:52:00,36.7,24.5,29.41,SSE,158,3.1,4.3,61,0.00,,---,0.00,VWS V14.01,2013-03-14 16:52:00,
2013-03-14 11:53:00,36.7,24.5,29.41,SSW,202,3.1,3.1,61,0.00,,---,0.00,VWS V14.01,2013-03-14 16:53:00,
2013-03-14 11:54:00,36.7,24.5,29.41,South,180,1.6,3.1,61,0.00,,---,0.00,VWS V14.01,2013-03-14 16:54:00,
2013-03-14 11:55:00,36.7,24.5,29.41,ESE,112,3.6,3.6,61,0.00,,---,0.00,VWS V14.01,2013-03-14 16:55:00,
2013-03-14 11:56:00,36.5,24.3,29.41,South,180,2.9,3.6,61,0.00,,---,0.00,VWS V14.01,2013-03-14 16:56:00,
2013-03-14 11:57:00,36.5,24.3,29.41,South,180,4.3,4.3,61,0.00,,---,0.00,VWS V14.01,2013-03-14 16:57:00,
2013-03-14 11:58:00,36.7,24.5,29.41,SSE,158,3.4,4.3,61,0.00,,---,0.00,VWS V14.01,2013-03-14 16:58:00,
2013-03-14 11:59:00,36.7,24.5,29.41,South,180,9.8,9.8,61,0.00,,---,0.00,VWS V14.01,2013-03-14 16:59:00,
2013-03-14 12:00:00,36.5,24.3,29.41,South,180,6.0,9.8,61,0.00,,---,0.00,VWS V14.01,2013-03-14 17:00:00,
2013-03-14 12:01:00,36.5,24.3,29.41,SE,135,10.3,10.3,61,0.00,,---,0.00,VWS V14.01,2013-03-14 17:01:00,
2013-03-14 12:02:00,36.5,24.3,29.41,SE,135,4.0,10.3,61,0.00,,---,0.00,VWS V14.01,2013-03-14 17:02:00,
2013-03-14 12:03:00,36.5,24.3,29.41,SSE,158,4.0,4.0,61,0.00,,---,0.00,VWS V14.01,2013-03-14 17:03:00,
2013-03-14 12:04:00,36.5,24.3,29.41,SSW,202,5.6,5.6,61,0.00,,---,0.00,VWS V14.01,2013-03-14 17:04:00,
2013-03-14 12:05:00,36.7,24.5,29.41,SSW,202,4.7,5.6,61,0.00,,---,0.00,VWS V14.01,2013-03-14 17:05:00,
2013-03-14 12:06:00,36.7,24.5,29.41,SSW,202,1.1,4.7,61,0.00,,---,0.00,VWS V14.01,2013-03-14 17:06:00,
2013-03-14 12:07:00,36.9,24.7,29.41,South,180,2.7,2.7,61,0.00,,---,0.00,VWS V14.01,2013-03-14 17:07:00,
2013-03-14 12:08:00,36.9,24.7,29.41,SSW,202,3.4,3.4,61,0.00,,---,0.00,VWS V14.01,2013-03-14 17:08:00,
2013-03-14 12:09:00,36.9,24.7,29.41,South,180,4.0,4.0,61,0.00,,---,0.00,VWS V14.01,2013-03-14 17:09:00,
2013-03-14 12:10:00,37.0,24.9,29.41,SSW,202,4.9,4.9,61,0.00,,---,0.00,VWS V14.01,2013-03-14 17:10:00,
2013-03-14 12:11:00,37.0,24.9,29.41,South,180,6.5,6.5,61,0.00,,---,0.00,VWS V14.01,2013-03-14 17:11:00,
2013-03-14 12:12:00,37.0,24.9,29.38,South,180,5.4,6.5,61,0.00,,---,0.00,VWS V14.01,2013-03-14 17:12:00,
2013-03-14 12:13:00,37.0,24.9,29.38,SSW,202,7.2,7.2,61,0.00,,---,0.00,VWS V14.01,2013-03-14 17:13:00,
2013-03-14 12:14:00,37.0,24.9,29.38,South,180,12.1,12.1,61,0.00,,---,0.00,VWS V14.01,2013-03-14 17:14:00,
2013-03-14 12:15:00,37.0,24.9,29.38,WSW,248,3.1,12.1,61,0.00,,---,0.00,VWS V14.01,2013-03-14 17:15:00,
2013-03-14 12:16:00,37.0,24.9,29.38,South,180,4.3,4.3,61,0.00,,---,0.00,VWS V14.01,2013-03-14 17:16:00,
2013-03-14 12:17:00,37.0,24.9,29.38,South,180,7.6,7.6,61,0.00,,---,0.00,VWS V14.01,2013-03-14 17:17:00,
2013-03-14 12:18:00,37.0,24.9,29.38,SSE,158,3.4,3.4,61,0.00,,---,0.00,VWS V14.01,2013-03-14 17:18:00,
2013-03-14 12:19:00,36.9,24.3,29.38,South,180,6.0,6.0,60,0.00,,---,0.00,VWS V14.01,2013-03-14 17:19:00,
2013-03-14 12:20:00,36.9,24.3,29.38,SE,135,3.6,6.0,60,0.00,,---,0.00,VWS V14.01,2013-03-14 17:20:00,
2013-03-14 12:21:00,36.9,24.3,29.38,SSW,202,2.0,3.6,60,0.00,,---,0.00,VWS V14.01,2013-03-14 17:21:00,
2013-03-14 12:22:00,36.7,24.1,29.38,SSW,202,2.0,2.0,60,0.00,,---,0.00,VWS V14.01,2013-03-14 17:22:00,
2013-03-14 12:23:00,36.7,24.1,29.38,East,90,2.0,2.7,60,0.00,,---,0.00,VWS V14.01,2013-03-14 17:23:00,
2013-03-14 12:24:00,36.7,24.1,29.38,East,90,2.0,2.7,60,0.00,,---,0.00,VWS V14.01,2013-03-14 17:24:00,
2013-03-14 12:25:00,36.7,24.1,29.38,South,180,3.6,3.6,60,0.00,,---,0.00,VWS V14.01,2013-03-14 17:25:00,
2013-03-14 12:26:00,36.5,24.0,29.38,SSE,158,5.6,5.6,60,0.00,,---,0.00,VWS V14.01,2013-03-14 17:26:00,
2013-03-14 12:27:00,36.5,24.0,29.38,SE,135,1.3,5.6,60,0.00,,---,0.00,VWS V14.01,2013-03-14 17:27:00,
2013-03-14 12:28:00,36.5,23.5,29.38,SE,135,4.7,4.7,59,0.00,,---,0.00,VWS V14.01,2013-03-14 17:28:00,
2013-03-14 12:29:00,36.5,23.5,29.38,SE,135,4.7,4.7,59,0.00,,---,0.00,VWS V14.01,2013-03-14 17:29:00,
2013-03-14 12:30:00,36.5,24.0,29.38,SSE,158,2.5,3.8,60,0.00,,---,0.00,VWS V14.01,2013-03-14 17:30:00,
2013-03-14 12:31:00,36.5,23.5,29.38,South,180,2.0,2.5,59,0.00,,---,0.00,VWS V14.01,2013-03-14 17:31:00,
2013-03-14 12:32:00,36.5,23.5,29.38,SSW,202,2.7,2.7,59,0.00,,---,0.00,VWS V14.01,2013-03-14 17:32:00,
2013-03-14 12:33:00,36.5,23.5,29.38,ESE,112,4.7,4.7,59,0.00,,---,0.00,VWS V14.01,2013-03-14 17:33:00,
2013-03-14 12:34:00,36.5,23.5,29.38,South,180,2.5,4.7,59,0.00,,---,0.00,VWS V14.01,2013-03-14 17:34:00,
2013-03-14 12:35:00,36.5,24.0,29.38,SE,135,2.2,2.5,60,0.00,,---,0.00,VWS V14.01,2013-03-14 17:35:00,
2013-03-14 12:36:00,36.5,24.0,29.38,SSW,202,3.1,3.1,60,0.00,,---,0.00,VWS V14.01,2013-03-14 17:36:00,
2013-03-14 12:37:00,36.5,24.0,29.38,SE,135,2.2,3.1,60,0.00,,---,0.00,VWS V14.01,2013-03-14 17:37:00,
2013-03-14 12:38:00,36.5,24.0,29.38,SSW,202,4.0,4.0,60,0.00,,---,0.00,VWS V14.01,2013-03-14 17:38:00,
2013-03-14 12:39:00,36.5,24.0,29.38,SSE,158,4.3,4.3,60,0.00,,---,0.00,VWS V14.01,2013-03-14 17:39:00,
2013-03-14 12:40:00,36.5,23.5,29.38,South,180,2.7,4.3,59,0.00,,---,0.00,VWS V14.01,2013-03-14 17:40:00,
2013-03-14 12:41:00,36.5,23.5,29.38,South,180,2.0,2.7,59,0.00,,---,0.00,VWS V14.01,2013-03-14 17:41:00,
2013-03-14 12:42:00,36.5,24.0,29.38,SE,135,2.9,2.9,60,0.00,,---,0.00,VWS V14.01,2013-03-14 17:42:00,
2013-03-14 12:43:00,36.5,24.0,29.38,SE,135,4.9,4.9,60,0.00,,---,0.00,VWS V14.01,2013-03-14 17:43:00,
2013-03-14 12:44:00,36.7,24.1,29.38,SSE,158,7.2,7.2,60,0.00,,---,0.00,VWS V14.01,2013-03-14 17:44:00,
2013-03-14 12:45:00,36.7,24.1,29.38,ENE,68,3.6,7.2,60,0.00,,---,0.00,VWS V14.01,2013-03-14 17:45:00,
2013-03-14 12:46:00,36.7,24.1,29.38,South,180,4.7,4.7,60,0.00,,---,0.00,VWS V14.01,2013-03-14 17:46:00,
2013-03-14 12:47:00,36.7,24.1,29.38,South,180,3.1,4.7,60,0.00,,---,0.00,VWS V14.01,2013-03-14 17:47:00,
2013-03-14 12:48:00,36.7,24.1,29.38,SSE,158,4.9,4.9,60,0.00,,---,0.00,VWS V14.01,2013-03-14 17:48:00,
2013-03-14 12:49:00,36.9,24.3,29.38,ESE,112,2.5,4.9,60,0.00,,---,0.00,VWS V14.01,2013-03-14 17:49:00,
2013-03-14 12:50:00,36.9,24.3,29.38,SE,135,6.5,6.5,60,0.00,,---,0.00,VWS V14.01,2013-03-14 17:50:00,
2013-03-14 12:51:00,37.0,24.9,29.38,South,180,5.6,6.5,61,0.00,,---,0.00,VWS V14.01,2013-03-14 17:51:00,
2013-03-14 12:52:00,37.0,24.9,29.38,South,180,4.7,5.6,61,0.00,,---,0.00,VWS V14.01,2013-03-14 17:52:00,
2013-03-14 12:53:00,37.2,25.0,29.38,SSW,202,4.7,4.7,61,0.00,,---,0.00,VWS V14.01,2013-03-14 17:53:00,
2013-03-14 12:54:00,37.4,25.2,29.38,South,180,4.7,5.6,61,0.00,,---,0.00,VWS V14.01,2013-03-14 17:54:00,
2013-03-14 12:55:00,37.4,25.2,29.38,SSE,158,4.0,5.6,61,0.00,,---,0.00,VWS V14.01,2013-03-14 17:55:00,
2013-03-14 12:56:00,37.8,25.5,29.38,South,180,4.0,4.0,61,0.00,,---,0.00,VWS V14.01,2013-03-14 17:56:00,
2013-03-14 12:57:00,37.8,25.5,29.38,SSW,202,6.0,6.0,61,0.00,,---,0.00,VWS V14.01,2013-03-14 17:57:00,
2013-03-14 12:58:00,37.9,25.7,29.38,SW,225,3.6,6.0,61,0.00,,---,0.00,VWS V14.01,2013-03-14 17:58:00,
2013-03-14 12:59:00,37.9,25.7,29.38,South,180,5.4,5.4,61,0.00,,---,0.00,VWS V14.01,2013-03-14 17:59:00,
2013-03-14 13:00:00,38.1,25.9,29.38,SSE,158,4.0,5.4,61,0.00,,---,0.00,VWS V14.01,2013-03-14 18:00:00,
2013-03-14 13:01:00,38.3,26.0,29.38,South,180,5.6,5.6,61,0.00,,---,0.00,VWS V14.01,2013-03-14 18:01:00,
2013-03-14 13:02:00,38.3,26.0,29.38,South,180,3.8,5.6,61,0.00,,---,0.00,VWS V14.01,2013-03-14 18:02:00,
2013-03-14 13:03:00,38.5,26.2,29.38,SE,135,7.6,7.6,61,0.00,,---,0.00,VWS V14.01,2013-03-14 18:03:00,
2013-03-14 13:04:00,38.5,26.2,29.38,South,180,3.4,7.6,61,0.00,,---,0.00,VWS V14.01,2013-03-14 18:04:00,
2013-03-14 13:05:00,38.5,25.8,29.38,South,180,3.4,3.4,60,0.00,,---,0.00,VWS V14.01,2013-03-14 18:05:00,
2013-03-14 13:06:00,38.5,25.8,29.38,SSE,158,5.8,5.8,60,0.00,,---,0.00,VWS V14.01,2013-03-14 18:06:00,
2013-03-14 13:07:00,38.5,25.4,29.38,East,90,2.0,5.8,59,0.00,,---,0.00,VWS V14.01,2013-03-14 18:07:00,
2013-03-14 13:08:00,38.3,25.2,29.38,SE,135,3.8,3.8,59,0.00,,---,0.00,VWS V14.01,2013-03-14 18:08:00,
2013-03-14 13:09:00,38.3,25.2,29.38,South,180,8.1,8.1,59,0.00,,---,0.00,VWS V14.01,2013-03-14 18:09:00,
2013-03-14 13:10:00,38.5,25.4,29.38,SE,135,7.6,8.1,59,0.00,,---,0.00,VWS V14.01,2013-03-14 18:10:00,
2013-03-14 13:11:00,38.5,25.4,29.38,SSW,202,4.7,7.6,59,0.00,,---,0.00,VWS V14.01,2013-03-14 18:11:00,
2013-03-14 13:12:00,38.7,26.0,29.35,SE,135,4.9,4.9,60,0.00,,---,0.00,VWS V14.01,2013-03-14 18:12:00,
2013-03-14 13:13:00,38.7,26.0,29.35,SSE,158,9.8,9.8,60,0.00,,---,0.00,VWS V14.01,2013-03-14 18:13:00,
2013-03-14 13:14:00,38.7,25.6,29.35,ESE,112,9.2,9.8,59,0.00,,---,0.00,VWS V14.01,2013-03-14 18:14:00,
2013-03-14 13:15:00,38.8,26.2,29.35,SSW,202,5.6,9.2,60,0.00,,---,0.00,VWS V14.01,2013-03-14 18:15:00,
2013-03-14 13:16:00,38.8,26.2,29.35,ESE,112,10.3,10.3,60,0.00,,---,0.00,VWS V14.01,2013-03-14 18:16:00,
2013-03-14 13:17:00,38.8,26.2,29.35,SSW,202,2.9,10.3,60,0.00,,---,0.00,VWS V14.01,2013-03-14 18:17:00,
2013-03-14 13:18:00,38.8,26.2,29.35,South,180,2.9,2.9,60,0.00,,---,0.00,VWS V14.01,2013-03-14 18:18:00,
2013-03-14 13:19:00,39.0,26.3,29.35,SE,135,3.8,3.8,60,0.00,,---,0.00,VWS V14.01,2013-03-14 18:19:00,
2013-03-14 13:20:00,39.0,26.3,29.35,South,180,6.3,6.3,60,0.00,,---,0.00,VWS V14.01,2013-03-14 18:20:00,
2013-03-14 13:21:00,39.2,26.1,29.35,SSE,158,7.6,7.6,59,0.00,,---,0.00,VWS V14.01,2013-03-14 18:21:00,
2013-03-14 13:22:00,39.2,26.1,29.35,SSW,202,3.4,7.6,59,0.00,,---,0.00,VWS V14.01,2013-03-14 18:22:00,
2013-03-14 13:23:00,39.4,26.7,29.35,SSW,202,4.0,4.0,60,0.00,,---,0.00,VWS V14.01,2013-03-14 18:23:00,
2013-03-14 13:24:00,39.9,27.2,29.35,South,180,5.6,5.6,60,0.00,,---,0.00,VWS V14.01,2013-03-14 18:24:00,
2013-03-14 13:25:00,39.9,27.2,29.35,South,180,7.2,7.2,60,0.00,,---,0.00,VWS V14.01,2013-03-14 18:25:00,
2013-03-14 13:26:00,39.9,27.2,29.35,South,180,4.7,7.2,60,0.00,,---,0.00,VWS V14.01,2013-03-14 18:26:00,
2013-03-14 13:27:00,39.9,27.2,29.35,SSW,202,4.3,4.7,60,0.00,,---,0.00,VWS V14.01,2013-03-14 18:27:00,
2013-03-14 13:28:00,40.3,27.5,29.35,South,180,6.0,6.0,60,0.00,,---,0.00,VWS V14.01,2013-03-14 18:28:00,
2013-03-14 13:29:00,40.5,27.7,29.35,WSW,248,4.7,4.7,60,0.00,,---,0.00,VWS V14.01,2013-03-14 18:29:00,
2013-03-14 13:30:00,40.5,27.7,29.35,SE,135,6.5,6.5,60,0.00,,---,0.00,VWS V14.01,2013-03-14 18:30:00,
2013-03-14 13:31:00,40.5,27.7,29.35,SSE,158,8.1,8.1,60,0.00,,---,0.00,VWS V14.01,2013-03-14 18:31:00,
2013-03-14 13:32:00,40.5,27.7,29.35,SSE,158,4.9,8.1,60,0.00,,---,0.00,VWS V14.01,2013-03-14 18:32:00,
2013-03-14 13:33:00,40.6,27.9,29.35,East,90,3.1,4.9,60,0.00,,---,0.00,VWS V14.01,2013-03-14 18:33:00,
2013-03-14 13:34:00,40.6,27.9,29.35,SE,135,7.2,7.6,60,0.00,,---,0.00,VWS V14.01,2013-03-14 18:34:00,
2013-03-14 13:35:00,40.6,27.5,29.35,SE,135,7.2,7.6,59,0.00,,---,0.00,VWS V14.01,2013-03-14 18:35:00,
2013-03-14 13:36:00,40.6,27.5,29.35,SE,135,4.0,9.8,59,0.00,,---,0.00,VWS V14.01,2013-03-14 18:36:00,
2013-03-14 13:37:00,40.6,27.5,29.35,SE,135,7.6,7.6,59,0.00,,---,0.00,VWS V14.01,2013-03-14 18:37:00,
2013-03-14 13:38:00,40.6,27.5,29.35,ESE,112,6.5,7.6,59,0.00,,---,0.00,VWS V14.01,2013-03-14 18:38:00,
2013-03-14 13:39:00,40.6,27.0,29.35,South,180,6.5,6.5,58,0.00,,---,0.00,VWS V14.01,2013-03-14 18:39:00,
2013-03-14 13:40:00,40.6,27.0,29.35,SSW,202,6.5,6.5,58,0.00,,---,0.00,VWS V14.01,2013-03-14 18:40:00,
2013-03-14 13:41:00,40.6,27.0,29.35,SSE,158,8.7,8.7,58,0.00,,---,0.00,VWS V14.01,2013-03-14 18:41:00,
2013-03-14 13:42:00,41.0,27.4,29.32,South,180,8.1,8.7,58,0.00,,---,0.00,VWS V14.01,2013-03-14 18:42:00,
2013-03-14 13:43:00,41.0,27.4,29.32,SSW,202,7.8,8.1,58,0.00,,---,0.00,VWS V14.01,2013-03-14 18:43:00,
2013-03-14 13:44:00,41.2,28.0,29.32,ESE,112,4.0,6.5,59,0.00,,---,0.00,VWS V14.01,2013-03-14 18:44:00,
2013-03-14 13:45:00,41.2,28.0,29.32,ESE,112,4.0,6.5,59,0.00,,---,0.00,VWS V14.01,2013-03-14 18:45:00,
2013-03-14 13:46:00,41.4,27.7,29.32,South,180,5.6,5.6,58,0.00,,---,0.00,VWS V14.01,2013-03-14 18:46:00,
2013-03-14 13:47:00,41.5,27.9,29.32,SW,225,7.8,7.8,58,0.00,,---,0.00,VWS V14.01,2013-03-14 18:47:00,
2013-03-14 13:48:00,41.5,27.9,29.32,SSW,202,8.5,8.5,58,0.00,,---,0.00,VWS V14.01,2013-03-14 18:48:00,
2013-03-14 13:49:00,42.1,28.4,29.32,SSE,158,5.4,6.3,58,0.00,,---,0.00,VWS V14.01,2013-03-14 18:49:00,
2013-03-14 13:50:00,42.1,28.4,29.32,SSW,202,5.6,6.3,58,0.00,,---,0.00,VWS V14.01,2013-03-14 18:50:00,
2013-03-14 13:51:00,43.7,29.9,29.32,North,0,3.8,5.6,58,0.00,,---,0.00,VWS V14.01,2013-03-14 18:51:00,
2013-03-14 13:52:00,43.7,29.9,29.32,SSE,158,5.4,5.4,58,0.00,,---,0.00,VWS V14.01,2013-03-14 18:52:00,
2013-03-14 13:53:00,45.3,30.6,29.32,SSE,158,5.4,5.4,56,0.00,,---,0.00,VWS V14.01,2013-03-14 18:53:00,
2013-03-14 13:54:00,45.9,30.2,29.32,ESE,112,6.5,6.5,54,0.00,,---,0.00,VWS V14.01,2013-03-14 18:54:00,
2013-03-14 13:55:00,45.9,30.2,29.32,SSE,158,8.1,8.1,54,0.00,,---,0.00,VWS V14.01,2013-03-14 18:55:00,
2013-03-14 13:56:00,45.9,29.2,29.32,ESE,112,5.4,8.1,52,0.00,,---,0.00,VWS V14.01,2013-03-14 18:56:00,
2013-03-14 13:57:00,45.9,29.2,29.32,SSE,158,8.5,8.5,52,0.00,,---,0.00,VWS V14.01,2013-03-14 18:57:00,
2013-03-14 13:58:00,46.0,29.4,29.32,SSE,158,7.4,8.5,52,0.00,,---,0.00,VWS V14.01,2013-03-14 18:58:00,
2013-03-14 13:59:00,46.0,29.4,29.32,South,180,4.3,7.4,52,0.00,,---,0.00,VWS V14.01,2013-03-14 18:59:00,
2013-03-14 14:00:00,46.8,29.6,29.32,SSE,158,10.3,10.3,51,0.00,,---,0.00,VWS V14.01,2013-03-14 19:00:00,
2013-03-14 14:01:00,45.9,29.2,29.32,South,180,11.9,11.9,52,0.00,,---,0.00,VWS V14.01,2013-03-14 19:01:00,
2013-03-14 14:02:00,45.9,29.2,29.32,SSE,158,7.4,11.9,52,0.00,,---,0.00,VWS V14.01,2013-03-14 19:02:00,
2013-03-14 14:03:00,45.1,29.0,29.32,SSW,202,5.8,7.4,53,0.00,,---,0.00,VWS V14.01,2013-03-14 19:03:00,
2013-03-14 14:04:00,45.1,29.0,29.32,SE,135,7.2,7.2,53,0.00,,---,0.00,VWS V14.01,2013-03-14 19:04:00,
2013-03-14 14:05:00,44.2,28.7,29.32,SE,135,7.2,7.2,54,0.00,,---,0.00,VWS V14.01,2013-03-14 19:05:00,
2013-03-14 14:06:00,44.2,28.7,29.32,SSE,158,11.0,11.0,54,0.00,,---,0.00,VWS V14.01,2013-03-14 19:06:00,
2013-03-14 14:07:00,43.5,28.0,29.32,SSW,202,5.4,11.0,54,0.00,,---,0.00,VWS V14.01,2013-03-14 19:07:00,
2013-03-14 14:08:00,43.3,28.3,29.32,SE,135,3.6,5.4,55,0.00,,---,0.00,VWS V14.01,2013-03-14 19:08:00,
2013-03-14 14:09:00,43.3,28.3,29.32,South,180,5.8,5.8,55,0.00,,---,0.00,VWS V14.01,2013-03-14 19:09:00,
2013-03-14 14:10:00,43.5,28.9,29.32,SSE,158,3.8,5.8,56,0.00,,---,0.00,VWS V14.01,2013-03-14 19:10:00,
2013-03-14 14:11:00,43.5,28.9,29.32,SE,135,7.6,7.6,56,0.00,,---,0.00,VWS V14.01,2013-03-14 19:11:00,
2013-03-14 14:12:00,43.3,28.3,29.32,SE,135,6.5,7.6,55,0.00,,---,0.00,VWS V14.01,2013-03-14 19:12:00,
2013-03-14 14:13:00,43.3,28.3,29.32,SSE,158,10.3,10.3,55,0.00,,---,0.00,VWS V14.01,2013-03-14 19:13:00,
2013-03-14 14:14:00,43.2,28.1,29.32,South,180,5.6,10.3,55,0.00,,---,0.00,VWS V14.01,2013-03-14 19:14:00,
2013-03-14 14:15:00,43.2,28.1,29.32,ESE,112,4.7,5.6,55,0.00,,---,0.00,VWS V14.01,2013-03-14 19:15:00,
2013-03-14 14:16:00,43.3,28.3,29.32,South,180,4.7,4.7,55,0.00,,---,0.00,VWS V14.01,2013-03-14 19:16:00,
2013-03-14 14:17:00,43.3,28.3,29.32,SSE,158,6.3,6.3,55,0.00,,---,0.00,VWS V14.01,2013-03-14 19:17:00,
2013-03-14 14:18:00,43.3,28.3,29.32,SE,135,3.1,6.3,55,0.00,,---,0.00,VWS V14.01,2013-03-14 19:18:00,
2013-03-14 14:19:00,43.3,28.3,29.32,SSE,158,4.5,4.5,55,0.00,,---,0.00,VWS V14.01,2013-03-14 19:19:00,
2013-03-14 14:20:00,43.3,28.3,29.32,South,180,8.7,8.7,55,0.00,,---,0.00,VWS V14.01,2013-03-14 19:20:00,
2013-03-14 14:21:00,43.3,28.3,29.32,ESE,112,6.5,8.7,55,0.00,,---,0.00,VWS V14.01,2013-03-14 19:21:00,
2013-03-14 14:22:00,43.3,28.3,29.32,ESE,112,7.2,7.2,55,0.00,,---,0.00,VWS V14.01,2013-03-14 19:22:00,
2013-03-14 14:23:00,43.2,28.1,29.32,SSW,202,3.1,7.2,55,0.00,,---,0.00,VWS V14.01,2013-03-14 19:23:00,
2013-03-14 14:24:00,43.5,28.4,29.32,South,180,3.4,3.4,55,0.00,,---,0.00,VWS V14.01,2013-03-14 19:24:00,
2013-03-14 14:25:00,43.5,28.4,29.32,SSE,158,5.6,5.6,55,0.00,,---,0.00,VWS V14.01,2013-03-14 19:25:00,
2013-03-14 14:26:00,43.5,28.4,29.32,WSW,248,3.4,5.6,55,0.00,,---,0.00,VWS V14.01,2013-03-14 19:26:00,
2013-03-14 14:27:00,43.5,28.4,29.32,SSW,202,5.4,5.4,55,0.00,,---,0.00,VWS V14.01,2013-03-14 19:27:00,
2013-03-14 14:28:00,43.3,28.3,29.32,South,180,7.2,7.2,55,0.00,,---,0.00,VWS V14.01,2013-03-14 19:28:00,
2013-03-14 14:29:00,43.3,28.3,29.32,SSE,158,5.8,7.2,55,0.00,,---,0.00,VWS V14.01,2013-03-14 19:29:00,
2013-03-14 14:30:00,43.3,28.3,29.32,South,180,3.4,5.8,55,0.00,,---,0.00,VWS V14.01,2013-03-14 19:30:00,
2013-03-14 14:31:00,43.0,27.9,29.32,South,180,3.4,5.8,55,0.00,,---,0.00,VWS V14.01,2013-03-14 19:31:00,
2013-03-14 14:32:00,43.0,27.9,29.32,South,180,5.8,8.1,55,0.00,,---,0.00,VWS V14.01,2013-03-14 19:32:00,
2013-03-14 14:33:00,42.8,27.8,29.32,SSW,202,9.6,9.6,55,0.00,,---,0.00,VWS V14.01,2013-03-14 19:33:00,
2013-03-14 14:34:00,42.8,27.8,29.32,SE,135,8.7,9.6,55,0.00,,---,0.00,VWS V14.01,2013-03-14 19:34:00,
2013-03-14 14:35:00,42.8,27.8,29.32,ENE,68,4.7,4.7,55,0.00,,---,0.00,VWS V14.01,2013-03-14 19:35:00,
2013-03-14 14:36:00,42.8,27.8,29.32,SSW,202,8.5,8.5,55,0.00,,---,0.00,VWS V14.01,2013-03-14 19:36:00,
2013-03-14 14:37:00,43.0,27.9,29.32,SW,225,7.8,8.5,55,0.00,,---,0.00,VWS V14.01,2013-03-14 19:37:00,
2013-03-14 14:38:00,43.0,27.9,29.32,South,180,4.3,7.8,55,0.00,,---,0.00,VWS V14.01,2013-03-14 19:38:00,
2013-03-14 14:39:00,43.3,28.3,29.32,South,180,10.1,10.1,55,0.00,,---,0.00,VWS V14.01,2013-03-14 19:39:00,
2013-03-14 14:40:00,43.5,28.4,29.32,SW,225,7.4,7.4,55,0.00,,---,0.00,VWS V14.01,2013-03-14 19:40:00,
2013-03-14 14:41:00,43.5,28.4,29.32,SSE,158,7.4,7.4,55,0.00,,---,0.00,VWS V14.01,2013-03-14 19:41:00,
2013-03-14 14:42:00,43.5,28.4,29.32,South,180,10.1,10.1,55,0.00,,---,0.00,VWS V14.01,2013-03-14 19:42:00,
2013-03-14 14:43:00,43.5,28.4,29.32,South,180,6.3,10.1,55,0.00,,---,0.00,VWS V14.01,2013-03-14 19:43:00,
2013-03-14 14:44:00,44.1,29.4,29.32,South,180,6.3,6.3,56,0.00,,---,0.00,VWS V14.01,2013-03-14 19:44:00,
2013-03-14 14:45:00,44.1,29.4,29.32,South,180,6.3,6.3,56,0.00,,---,0.00,VWS V14.01,2013-03-14 19:45:00,
2013-03-14 14:46:00,44.1,29.4,29.32,SSE,158,3.4,6.3,56,0.00,,---,0.00,VWS V14.01,2013-03-14 19:46:00,
2013-03-14 14:47:00,43.7,28.6,29.32,SSE,158,3.4,3.4,55,0.00,,---,0.00,VWS V14.01,2013-03-14 19:47:00,
2013-03-14 14:48:00,43.7,28.6,29.32,SE,135,5.8,7.6,55,0.00,,---,0.00,VWS V14.01,2013-03-14 19:48:00,
2013-03-14 14:49:00,43.5,28.4,29.32,ESE,112,9.0,9.0,55,0.00,,---,0.00,VWS V14.01,2013-03-14 19:49:00,
2013-03-14 14:50:00,43.3,27.8,29.32,SE,135,8.1,8.1,54,0.00,,---,0.00,VWS V14.01,2013-03-14 19:50:00,
2013-03-14 14:51:00,43.3,27.8,29.32,SE,135,6.0,8.1,54,0.00,,---,0.00,VWS V14.01,2013-03-14 19:51:00,
2013-03-14 14:52:00,43.3,27.8,29.32,ESE,112,4.7,6.0,54,0.00,,---,0.00,VWS V14.01,2013-03-14 19:52:00,
2013-03-14 14:53:00,43.3,28.3,29.32,SSW,202,2.9,4.7,55,0.00,,---,0.00,VWS V14.01,2013-03-14 19:53:00,
2013-03-14 14:54:00,43.3,28.3,29.32,South,180,2.7,2.9,55,0.00,,---,0.00,VWS V14.01,2013-03-14 19:54:00,
2013-03-14 14:55:00,43.3,28.3,29.32,ESE,112,5.6,5.6,55,0.00,,---,0.00,VWS V14.01,2013-03-14 19:55:00,
2013-03-14 14:56:00,43.2,28.1,29.32,ESE,112,5.6,5.6,55,0.00,,---,0.00,VWS V14.01,2013-03-14 19:56:00,
2013-03-14 14:57:00,43.2,28.1,29.29,South,180,3.8,5.6,55,0.00,,---,0.00,VWS V14.01,2013-03-14 19:57:00,
2013-03-14 14:58:00,43.2,28.1,29.29,SSE,158,7.4,7.4,55,0.00,,---,0.00,VWS V14.01,2013-03-14 19:58:00,
2013-03-14 14:59:00,43.2,28.1,29.29,South,180,7.4,7.4,55,0.00,,---,0.00,VWS V14.01,2013-03-14 19:59:00,
2013-03-14 15:00:00,43.2,28.1,29.29,SE,135,8.7,8.7,55,0.00,,---,0.00,VWS V14.01,2013-03-14 20:00:00,
2013-03-14 15:01:00,43.2,28.1,29.29,SSE,158,5.6,8.7,55,0.00,,---,0.00,VWS V14.01,2013-03-14 20:01:00,
2013-03-14 15:02:00,43.0,27.9,29.29,South,180,3.1,5.6,55,0.00,,---,0.00,VWS V14.01,2013-03-14 20:02:00,
2013-03-14 15:03:00,43.0,27.5,29.29,East,90,3.8,3.8,54,0.00,,---,0.00,VWS V14.01,2013-03-14 20:03:00,
2013-03-14 15:04:00,43.0,27.5,29.29,SE,135,9.0,9.0,54,0.00,,---,0.00,VWS V14.01,2013-03-14 20:04:00,
2013-03-14 15:05:00,43.0,27.5,29.29,South,180,4.0,4.0,54,0.00,,---,0.00,VWS V14.01,2013-03-14 20:05:00,
2013-03-14 15:06:00,43.0,27.5,29.29,South,180,4.0,4.0,54,0.00,,---,0.00,VWS V14.01,2013-03-14 20:06:00,
2013-03-14 15:07:00,43.0,27.5,29.29,SSW,202,10.7,10.7,54,0.00,,---,0.00,VWS V14.01,2013-03-14 20:07:00,
2013-03-14 15:08:00,43.0,27.5,29.29,North,0,6.3,10.7,54,0.00,,---,0.00,VWS V14.01,2013-03-14 20:08:00,
2013-03-14 15:09:00,43.7,28.2,29.29,SSW,202,6.0,6.3,54,0.00,,---,0.00,VWS V14.01,2013-03-14 20:09:00,
2013-03-14 15:10:00,44.1,28.9,29.29,South,180,7.8,7.8,55,0.00,,---,0.00,VWS V14.01,2013-03-14 20:10:00,
2013-03-14 15:11:00,44.1,28.9,29.29,South,180,4.7,7.8,55,0.00,,---,0.00,VWS V14.01,2013-03-14 20:11:00,
2013-03-14 15:12:00,43.9,28.3,29.32,ESE,112,7.4,7.4,54,0.00,,---,0.00,VWS V14.01,2013-03-14 20:12:00,
2013-03-14 15:13:00,43.9,28.3,29.32,SSE,158,2.5,7.4,54,0.00,,---,0.00,VWS V14.01,2013-03-14 20:13:00,
2013-03-14 15:14:00,43.7,28.2,29.32,South,180,3.4,3.4,54,0.00,,---,0.00,VWS V14.01,2013-03-14 20:14:00,
2013-03-14 15:15:00,43.7,28.2,29.32,SSW,202,3.1,3.4,54,0.00,,---,0.00,VWS V14.01,2013-03-14 20:15:00,
2013-03-14 15:16:00,43.7,28.2,29.32,SSW,202,3.1,3.1,54,0.00,,---,0.00,VWS V14.01,2013-03-14 20:16:00,
2013-03-14 15:17:00,43.7,28.2,29.32,SE,135,3.1,8.5,54,0.00,,---,0.00,VWS V14.01,2013-03-14 20:17:00,
2013-03-14 15:18:00,43.7,28.6,29.32,NNE,22,11.0,11.0,55,0.00,,---,0.00,VWS V14.01,2013-03-14 20:18:00,
2013-03-14 15:19:00,43.7,28.6,29.32,NNE,22,11.0,11.0,55,0.00,,---,0.00,VWS V14.01,2013-03-14 20:19:00,
2013-03-14 15:20:00,43.7,28.6,29.32,SSW,202,8.1,11.0,55,0.00,,---,0.00,VWS V14.01,2013-03-14 20:20:00,
2013-03-14 15:21:00,43.9,28.8,29.32,SE,135,6.3,8.1,55,0.00,,---,0.00,VWS V14.01,2013-03-14 20:21:00,
2013-03-14 15:22:00,43.9,28.8,29.32,SE,135,5.4,6.3,55,0.00,,---,0.00,VWS V14.01,2013-03-14 20:22:00,
2013-03-14 15:23:00,44.1,28.5,29.32,South,180,3.6,5.4,54,0.00,,---,0.00,VWS V14.01,2013-03-14 20:23:00,
2013-03-14 15:24:00,44.1,28.9,29.32,ESE,112,3.1,3.6,55,0.00,,---,0.00,VWS V14.01,2013-03-14 20:24:00,
2013-03-14 15:25:00,44.1,28.9,29.32,SSW,202,3.8,3.8,55,0.00,,---,0.00,VWS V14.01,2013-03-14 20:25:00,
2013-03-14 15:26:00,44.1,28.5,29.32,SSW,202,3.8,3.8,54,0.00,,---,0.00,VWS V14.01,2013-03-14 20:26:00,
2013-03-14 15:27:00,44.1,28.5,29.32,SE,135,12.3,12.3,54,0.00,,---,0.00,VWS V14.01,2013-03-14 20:27:00,
2013-03-14 15:28:00,43.7,27.7,29.32,ESE,112,7.8,12.3,53,0.00,,---,0.00,VWS V14.01,2013-03-14 20:28:00,
2013-03-14 15:29:00,43.7,27.7,29.32,East,90,6.3,7.8,53,0.00,,---,0.00,VWS V14.01,2013-03-14 20:29:00,
2013-03-14 15:30:00,43.7,27.7,29.32,South,180,3.1,6.3,53,0.00,,---,0.00,VWS V14.01,2013-03-14 20:30:00,
2013-03-14 15:31:00,43.7,27.7,29.32,SSW,202,5.4,5.4,53,0.00,,---,0.00,VWS V14.01,2013-03-14 20:31:00,
2013-03-14 15:32:00,43.7,27.7,29.32,SE,135,4.0,5.4,53,0.00,,---,0.00,VWS V14.01,2013-03-14 20:32:00,
2013-03-14 15:33:00,43.7,28.2,29.32,South,180,5.8,5.8,54,0.00,,---,0.00,VWS V14.01,2013-03-14 20:33:00,
2013-03-14 15:34:00,43.7,28.2,29.32,South,180,6.3,6.3,54,0.00,,---,0.00,VWS V14.01,2013-03-14 20:34:00,
2013-03-14 15:35:00,43.9,28.3,29.32,SE,135,6.5,6.5,54,0.00,,---,0.00,VWS V14.01,2013-03-14 20:35:00,
2013-03-14 15:36:00,44.1,28.5,29.32,SE,135,5.6,5.6,54,0.00,,---,0.00,VWS V14.01,2013-03-14 20:36:00,
2013-03-14 15:37:00,44.1,28.5,29.32,NNE,22,6.5,6.5,54,0.00,,---,0.00,VWS V14.01,2013-03-14 20:37:00,
2013-03-14 15:38:00,44.1,28.5,29.32,East,90,7.2,7.2,54,0.00,,---,0.00,VWS V14.01,2013-03-14 20:38:00,
2013-03-14 15:39:00,43.9,28.3,29.32,SE,135,7.2,7.2,54,0.00,,---,0.00,VWS V14.01,2013-03-14 20:39:00,
2013-03-14 15:40:00,43.7,28.2,29.32,SSE,158,6.3,7.2,54,0.00,,---,0.00,VWS V14.01,2013-03-14 20:40:00,
2013-03-14 15:41:00,43.7,28.2,29.32,South,180,4.0,8.1,54,0.00,,---,0.00,VWS V14.01,2013-03-14 20:41:00,
2013-03-14 15:42:00,43.7,28.2,29.32,ESE,112,6.0,8.1,54,0.00,,---,0.00,VWS V14.01,2013-03-14 20:42:00,
2013-03-14 15:43:00,43.7,28.2,29.32,SE,135,3.4,6.0,54,0.00,,---,0.00,VWS V14.01,2013-03-14 20:43:00,
2013-03-14 15:44:00,43.7,28.2,29.32,East,90,4.9,4.9,54,0.00,,---,0.00,VWS V14.01,2013-03-14 20:44:00,
2013-03-14 15:45:00,43.7,28.2,29.32,SSW,202,4.7,4.9,54,0.00,,---,0.00,VWS V14.01,2013-03-14 20:45:00,
2013-03-14 15:46:00,43.7,28.2,29.32,SW,225,5.4,5.4,54,0.00,,---,0.00,VWS V14.01,2013-03-14 20:46:00,
2013-03-14 15:47:00,43.7,28.2,29.32,SSW,202,3.6,5.4,54,0.00,,---,0.00,VWS V14.01,2013-03-14 20:47:00,
2013-03-14 15:48:00,43.7,28.2,29.32,SSW,202,3.6,3.6,54,0.00,,---,0.00,VWS V14.01,2013-03-14 20:48:00,
2013-03-14 15:49:00,43.7,28.2,29.32,South,180,9.6,9.6,54,0.00,,---,0.00,VWS V14.01,2013-03-14 20:49:00,
2013-03-14 15:50:00,43.7,28.2,29.32,SSW,202,3.4,9.6,54,0.00,,---,0.00,VWS V14.01,2013-03-14 20:50:00,
2013-03-14 15:51:00,43.7,28.2,29.32,SSE,158,9.6,9.6,54,0.00,,---,0.00,VWS V14.01,2013-03-14 20:51:00,
2013-03-14 15:52:00,43.7,28.2,29.32,SSE,158,9.6,9.6,54,0.00,,---,0.00,VWS V14.01,2013-03-14 20:52:00,
2013-03-14 15:53:00,44.1,28.5,29.32,South,180,9.8,9.8,54,0.00,,---,0.00,VWS V14.01,2013-03-14 20:53:00,
2013-03-14 15:54:00,44.2,29.1,29.32,South,180,6.3,9.8,55,0.00,,---,0.00,VWS V14.01,2013-03-14 20:54:00,
2013-03-14 15:55:00,44.2,29.1,29.32,SSW,202,8.1,8.1,55,0.00,,---,0.00,VWS V14.01,2013-03-14 20:55:00,
2013-03-14 15:56:00,44.2,29.1,29.32,SSW,202,8.5,8.5,55,0.00,,---,0.00,VWS V14.01,2013-03-14 20:56:00,
2013-03-14 15:57:00,44.2,29.1,29.32,SSW,202,8.5,8.5,55,0.00,,---,0.00,VWS V14.01,2013-03-14 20:57:00,
2013-03-14 15:58:00,44.2,29.1,29.32,South,180,3.8,9.6,55,0.00,,---,0.00,VWS V14.01,2013-03-14 20:58:00,
2013-03-14 15:59:00,44.2,29.1,29.32,South,180,5.4,5.4,55,0.00,,---,0.00,VWS V14.01,2013-03-14 20:59:00,
2013-03-14 16:00:00,44.4,29.3,29.32,SE,135,7.4,7.4,55,0.00,,---,0.00,VWS V14.01,2013-03-14 21:00:00,
2013-03-14 16:01:00,44.4,29.3,29.32,ESE,112,3.6,7.4,55,0.00,,---,0.00,VWS V14.01,2013-03-14 21:01:00,
2013-03-14 16:02:00,44.4,28.8,29.32,SSW,202,8.7,8.7,54,0.00,,---,0.00,VWS V14.01,2013-03-14 21:02:00,
2013-03-14 16:03:00,44.4,28.8,29.32,South,180,3.6,8.7,54,0.00,,---,0.00,VWS V14.01,2013-03-14 21:03:00,
2013-03-14 16:04:00,44.4,28.8,29.32,South,180,9.2,9.2,54,0.00,,---,0.00,VWS V14.01,2013-03-14 21:04:00,
2013-03-14 16:05:00,44.8,29.2,29.32,SSW,202,3.4,9.2,54,0.00,,---,0.00,VWS V14.01,2013-03-14 21:05:00,
2013-03-14 16:06:00,44.8,29.2,29.32,SSW,202,5.8,5.8,54,0.00,,---,0.00,VWS V14.01,2013-03-14 21:06:00,
2013-03-14 16:07:00,45.0,29.3,29.32,South,180,3.4,5.8,54,0.00,,---,0.00,VWS V14.01,2013-03-14 21:07:00,
2013-03-14 16:08:00,45.0,29.3,29.32,South,180,7.8,7.8,54,0.00,,---,0.00,VWS V14.01,2013-03-14 21:08:00,
2013-03-14 16:09:00,45.0,29.3,29.32,South,180,7.8,7.8,54,0.00,,---,0.00,VWS V14.01,2013-03-14 21:09:00,
2013-03-14 16:10:00,45.0,29.3,29.32,SSE,158,5.6,7.8,54,0.00,,---,0.00,VWS V14.01,2013-03-14 21:10:00,
2013-03-14 16:11:00,45.0,29.3,29.32,East,90,7.8,7.8,54,0.00,,---,0.00,VWS V14.01,2013-03-14 21:11:00,
2013-03-14 16:12:00,44.8,29.2,29.32,South,180,7.4,7.8,54,0.00,,---,0.00,VWS V14.01,2013-03-14 21:12:00,
2013-03-14 16:13:00,44.8,29.2,29.32,South,180,5.6,7.4,54,0.00,,---,0.00,VWS V14.01,2013-03-14 21:13:00,
2013-03-14 16:14:00,45.0,29.3,29.32,South,180,7.6,7.6,54,0.00,,---,0.00,VWS V14.01,2013-03-14 21:14:00,
2013-03-14 16:15:00,45.0,29.3,29.32,SE,135,3.8,7.6,54,0.00,,---,0.00,VWS V14.01,2013-03-14 21:15:00,
2013-03-14 16:16:00,44.8,29.2,29.32,South,180,5.4,5.4,54,0.00,,---,0.00,VWS V14.01,2013-03-14 21:16:00,
2013-03-14 16:17:00,44.8,29.2,29.32,SE,135,10.1,10.1,54,0.00,,---,0.00,VWS V14.01,2013-03-14 21:17:00,
2013-03-14 16:18:00,44.8,29.2,29.32,SSW,202,7.4,10.1,54,0.00,,---,0.00,VWS V14.01,2013-03-14 21:18:00,
2013-03-14 16:19:00,44.8,29.2,29.32,SE,135,7.4,7.4,54,0.00,,---,0.00,VWS V14.01,2013-03-14 21:19:00,
2013-03-14 16:20:00,44.8,29.2,29.32,SE,135,6.0,7.4,54,0.00,,---,0.00,VWS V14.01,2013-03-14 21:20:00,
2013-03-14 16:21:00,44.8,29.2,29.32,SE,135,5.4,6.0,54,0.00,,---,0.00,VWS V14.01,2013-03-14 21:21:00,
2013-03-14 16:22:00,44.8,29.2,29.32,SE,135,2.9,5.4,54,0.00,,---,0.00,VWS V14.01,2013-03-14 21:22:00,
2013-03-14 16:23:00,44.4,28.8,29.32,South,180,3.4,3.4,54,0.00,,---,0.00,VWS V14.01,2013-03-14 21:23:00,
2013-03-14 16:24:00,44.4,28.8,29.32,SSW,202,6.0,6.0,54,0.00,,---,0.00,VWS V14.01,2013-03-14 21:24:00,
2013-03-14 16:25:00,44.6,29.0,29.32,SE,135,9.6,9.6,54,0.00,,---,0.00,VWS V14.01,2013-03-14 21:25:00,
2013-03-14 16:26:00,44.4,28.8,29.32,SE,135,9.6,9.6,54,0.00,,---,0.00,VWS V14.01,2013-03-14 21:26:00,
2013-03-14 16:27:00,44.4,28.8,29.29,South,180,4.0,4.0,54,0.00,,---,0.00,VWS V14.01,2013-03-14 21:27:00,
2013-03-14 16:28:00,44.2,28.7,29.29,SE,135,6.3,6.3,54,0.00,,---,0.00,VWS V14.01,2013-03-14 21:28:00,
2013-03-14 16:29:00,44.2,28.7,29.29,South,180,6.5,6.5,54,0.00,,---,0.00,VWS V14.01,2013-03-14 21:29:00,
2013-03-14 16:30:00,44.1,28.5,29.29,SE,135,3.8,6.5,54,0.00,,---,0.00,VWS V14.01,2013-03-14 21:30:00,
2013-03-14 16:31:00,44.1,28.5,29.29,SE,135,2.9,3.8,54,0.00,,---,0.00,VWS V14.01,2013-03-14 21:31:00,
2013-03-14 16:32:00,44.1,28.5,29.29,South,180,9.8,9.8,54,0.00,,---,0.00,VWS V14.01,2013-03-14 21:32:00,
2013-03-14 16:33:00,44.1,28.5,29.29,ESE,112,3.8,9.8,54,0.00,,---,0.00,VWS V14.01,2013-03-14 21:33:00,
2013-03-14 16:34:00,44.1,28.5,29.29,South,180,5.4,5.4,54,0.00,,---,0.00,VWS V14.01,2013-03-14 21:34:00,
2013-03-14 16:35:00,44.1,28.5,29.29,East,90,5.4,5.4,54,0.00,,---,0.00,VWS V14.01,2013-03-14 21:35:00,
2013-03-14 16:36:00,44.1,28.5,29.29,South,180,3.1,5.4,54,0.00,,---,0.00,VWS V14.01,2013-03-14 21:36:00,
2013-03-14 16:37:00,44.2,28.7,29.29,SSW,202,5.6,6.0,54,0.00,,---,0.00,VWS V14.01,2013-03-14 21:37:00,
2013-03-14 16:38:00,44.2,28.7,29.29,SSE,158,6.5,6.5,54,0.00,,---,0.00,VWS V14.01,2013-03-14 21:38:00,
2013-03-14 16:39:00,44.2,28.7,29.29,SSE,158,6.5,6.5,54,0.00,,---,0.00,VWS V14.01,2013-03-14 21:39:00,
2013-03-14 16:40:00,44.2,28.7,29.29,ESE,112,5.4,6.5,54,0.00,,---,0.00,VWS V14.01,2013-03-14 21:40:00,
2013-03-14 16:41:00,44.1,28.5,29.29,South,180,3.6,5.4,54,0.00,,---,0.00,VWS V14.01,2013-03-14 21:41:00,
2013-03-14 16:42:00,44.1,28.5,29.29,SSE,158,4.7,4.7,54,0.00,,---,0.00,VWS V14.01,2013-03-14 21:42:00,
2013-03-14 16:43:00,44.1,28.5,29.29,SW,225,3.1,4.7,54,0.00,,---,0.00,VWS V14.01,2013-03-14 21:43:00,
2013-03-14 16:44:00,44.1,28.5,29.29,South,180,8.7,8.7,54,0.00,,---,0.00,VWS V14.01,2013-03-14 21:44:00,
2013-03-14 16:45:00,44.1,28.5,29.29,SSE,158,4.3,8.7,54,0.00,,---,0.00,VWS V14.01,2013-03-14 21:45:00,
2013-03-14 16:46:00,44.1,28.5,29.29,South,180,3.1,4.3,54,0.00,,---,0.00,VWS V14.01,2013-03-14 21:46:00,
2013-03-14 16:47:00,44.1,28.5,29.29,South,180,4.0,4.3,54,0.00,,---,0.00,VWS V14.01,2013-03-14 21:47:00,
2013-03-14 16:48:00,44.1,28.5,29.29,South,180,4.0,4.3,54,0.00,,---,0.00,VWS V14.01,2013-03-14 21:48:00,
2013-03-14 16:49:00,44.2,28.7,29.29,SSE,158,3.6,12.8,54,0.00,,---,0.00,VWS V14.01,2013-03-14 21:49:00,
2013-03-14 16:50:00,44.2,28.7,29.29,South,180,10.3,10.3,54,0.00,,---,0.00,VWS V14.01,2013-03-14 21:50:00,
2013-03-14 16:51:00,44.1,28.5,29.29,East,90,6.0,10.3,54,0.00,,---,0.00,VWS V14.01,2013-03-14 21:51:00,
2013-03-14 16:52:00,44.1,28.5,29.29,SSW,202,6.5,6.5,54,0.00,,---,0.00,VWS V14.01,2013-03-14 21:52:00,
2013-03-14 16:53:00,43.9,28.8,29.29,SSW,202,6.5,6.5,55,0.00,,---,0.00,VWS V14.01,2013-03-14 21:53:00,
2013-03-14 16:54:00,43.9,28.8,29.29,ESE,112,6.5,6.5,55,0.00,,---,0.00,VWS V14.01,2013-03-14 21:54:00,
2013-03-14 16:55:00,44.1,28.5,29.29,South,180,4.7,6.5,54,0.00,,---,0.00,VWS V14.01,2013-03-14 21:55:00,
2013-03-14 16:56:00,44.1,28.5,29.29,NNE,22,6.3,6.3,54,0.00,,---,0.00,VWS V14.01,2013-03-14 21:56:00,
2013-03-14 16:57:00,44.1,28.5,29.32,ESE,112,7.2,7.2,54,0.00,,---,0.00,VWS V14.01,2013-03-14 21:57:00,
2013-03-14 16:58:00,44.1,28.5,29.32,SSE,158,5.8,7.2,54,0.00,,---,0.00,VWS V14.01,2013-03-14 21:58:00,
2013-03-14 16:59:00,44.1,28.5,29.32,South,180,4.3,5.8,54,0.00,,---,0.00,VWS V14.01,2013-03-14 21:59:00,
2013-03-14 17:00:00,43.9,28.3,29.32,SSW,202,5.6,5.6,54,0.00,,---,0.00,VWS V14.01,2013-03-14 22:00:00,
2013-03-14 17:01:00,43.9,28.3,29.32,South,180,7.6,7.6,54,0.00,,---,0.00,VWS V14.01,2013-03-14 22:01:00,
2013-03-14 17:02:00,44.1,28.5,29.32,South,180,4.9,7.6,54,0.00,,---,0.00,VWS V14.01,2013-03-14 22:02:00,
2013-03-14 17:03:00,44.1,28.5,29.32,South,180,8.5,8.5,54,0.00,,---,0.00,VWS V14.01,2013-03-14 22:03:00,
2013-03-14 17:04:00,44.1,28.5,29.32,SE,135,6.0,8.5,54,0.00,,---,0.00,VWS V14.01,2013-03-14 22:04:00,
2013-03-14 17:05:00,44.1,28.5,29.32,SSW,202,5.4,6.0,54,0.00,,---,0.00,VWS V14.01,2013-03-14 22:05:00,
2013-03-14 17:06:00,44.1,28.5,29.32,SE,135,8.1,8.1,54,0.00,,---,0.00,VWS V14.01,2013-03-14 22:06:00,
2013-03-14 17:07:00,44.1,28.5,29.32,South,180,4.3,8.1,54,0.00,,---,0.00,VWS V14.01,2013-03-14 22:07:00,
2013-03-14 17:08:00,44.1,28.5,29.32,SSE,158,8.5,8.5,54,0.00,,---,0.00,VWS V14.01,2013-03-14 22:08:00,
2013-03-14 17:09:00,44.1,28.5,29.32,SSW,202,5.8,8.5,54,0.00,,---,0.00,VWS V14.01,2013-03-14 22:09:00,
2013-03-14 17:10:00,44.2,28.7,29.32,SSW,202,10.3,10.3,54,0.00,,---,0.00,VWS V14.01,2013-03-14 22:10:00,
2013-03-14 17:11:00,44.2,28.7,29.32,SSW,202,10.3,10.3,54,0.00,,---,0.00,VWS V14.01,2013-03-14 22:11:00,
2013-03-14 17:12:00,44.2,28.7,29.29,SE,135,9.6,10.3,54,0.00,,---,0.00,VWS V14.01,2013-03-14 22:12:00,
2013-03-14 17:13:00,44.2,28.7,29.29,ESE,112,9.6,9.6,54,0.00,,---,0.00,VWS V14.01,2013-03-14 22:13:00,
2013-03-14 17:14:00,44.1,28.9,29.29,SSE,158,8.5,9.6,55,0.00,,---,0.00,VWS V14.01,2013-03-14 22:14:00,
2013-03-14 17:15:00,44.1,28.9,29.29,East,90,3.6,8.5,55,0.00,,---,0.00,VWS V14.01,2013-03-14 22:15:00,
2013-03-14 17:16:00,44.1,28.5,29.29,South,180,6.0,6.0,54,0.00,,---,0.00,VWS V14.01,2013-03-14 22:16:00,
2013-03-14 17:17:00,44.1,28.5,29.29,NNW,338,4.7,6.0,54,0.00,,---,0.00,VWS V14.01,2013-03-14 22:17:00,
2013-03-14 17:18:00,43.9,28.3,29.29,ESE,112,4.3,4.7,54,0.00,,---,0.00,VWS V14.01,2013-03-14 22:18:00,
2013-03-14 17:19:00,43.9,28.8,29.29,SSE,158,3.4,4.3,55,0.00,,---,0.00,VWS V14.01,2013-03-14 22:19:00,
2013-03-14 17:20:00,43.9,28.8,29.29,ESE,112,3.4,3.4,55,0.00,,---,0.00,VWS V14.01,2013-03-14 22:20:00,
2013-03-14 17:21:00,43.9,28.8,29.29,SSE,158,6.5,6.5,55,0.00,,---,0.00,VWS V14.01,2013-03-14 22:21:00,
2013-03-14 17:22:00,43.9,28.8,29.29,SE,135,7.2,7.2,55,0.00,,---,0.00,VWS V14.01,2013-03-14 22:22:00,
2013-03-14 17:23:00,43.9,28.8,29.29,South,180,4.3,7.2,55,0.00,,---,0.00,VWS V14.01,2013-03-14 22:23:00,
2013-03-14 17:24:00,43.9,28.8,29.29,SSW,202,5.6,5.6,55,0.00,,---,0.00,VWS V14.01,2013-03-14 22:24:00,
2013-03-14 17:25:00,43.9,28.8,29.29,SSW,202,2.7,5.6,55,0.00,,---,0.00,VWS V14.01,2013-03-14 22:25:00,
2013-03-14 17:26:00,43.9,28.3,29.29,SSE,158,4.0,4.0,54,0.00,,---,0.00,VWS V14.01,2013-03-14 22:26:00,
2013-03-14 17:27:00,43.9,28.3,29.29,NE,45,4.0,4.0,54,0.00,,---,0.00,VWS V14.01,2013-03-14 22:27:00,
2013-03-14 17:28:00,43.9,28.3,29.29,ESE,112,3.1,3.1,54,0.00,,---,0.00,VWS V14.01,2013-03-14 22:28:00,
2013-03-14 17:29:00,43.9,28.3,29.29,South,180,2.9,3.1,54,0.00,,---,0.00,VWS V14.01,2013-03-14 22:29:00,
2013-03-14 17:30:00,43.9,28.8,29.29,SSE,158,4.9,4.9,55,0.00,,---,0.00,VWS V14.01,2013-03-14 22:30:00,
2013-03-14 17:31:00,43.9,28.8,29.29,SSW,202,2.9,4.9,55,0.00,,---,0.00,VWS V14.01,2013-03-14 22:31:00,
2013-03-14 17:32:00,43.9,28.8,29.29,ESE,112,10.1,10.1,55,0.00,,---,0.00,VWS V14.01,2013-03-14 22:32:00,
2013-03-14 17:33:00,43.9,28.8,29.29,SSE,158,3.4,10.1,55,0.00,,---,0.00,VWS V14.01,2013-03-14 22:33:00,
2013-03-14 17:34:00,43.9,28.8,29.29,SE,135,4.3,4.3,55,0.00,,---,0.00,VWS V14.01,2013-03-14 22:34:00,
2013-03-14 17:35:00,43.7,28.6,29.29,SSW,202,4.3,4.3,55,0.00,,---,0.00,VWS V14.01,2013-03-14 22:35:00,
2013-03-14 17:36:00,43.7,28.6,29.29,South,180,3.1,4.3,55,0.00,,---,0.00,VWS V14.01,2013-03-14 22:36:00,
2013-03-14 17:37:00,43.7,28.6,29.29,SSE,158,3.4,3.4,55,0.00,,---,0.00,VWS V14.01,2013-03-14 22:37:00,
2013-03-14 17:38:00,43.7,28.6,29.29,South,180,3.8,3.8,55,0.00,,---,0.00,VWS V14.01,2013-03-14 22:38:00,
2013-03-14 17:39:00,43.7,28.6,29.29,SE,135,5.4,5.4,55,0.00,,---,0.00,VWS V14.01,2013-03-14 22:39:00,
2013-03-14 17:40:00,43.7,28.6,29.29,SSW,202,4.3,5.4,55,0.00,,---,0.00,VWS V14.01,2013-03-14 22:40:00,
2013-03-14 17:41:00,43.7,28.6,29.29,SE,135,3.4,4.3,55,0.00,,---,0.00,VWS V14.01,2013-03-14 22:41:00,
2013-03-14 17:42:00,43.5,28.4,29.29,SE,135,2.9,3.4,55,0.00,,---,0.00,VWS V14.01,2013-03-14 22:42:00,
2013-03-14 17:43:00,43.5,28.4,29.29,SSE,158,5.4,5.4,55,0.00,,---,0.00,VWS V14.01,2013-03-14 22:43:00,
2013-03-14 17:44:00,43.7,28.6,29.29,SSE,158,5.4,5.4,55,0.00,,---,0.00,VWS V14.01,2013-03-14 22:44:00,
2013-03-14 17:45:00,43.7,28.6,29.29,East,90,4.9,6.3,55,0.00,,---,0.00,VWS V14.01,2013-03-14 22:45:00,
2013-03-14 17:46:00,43.7,28.6,29.29,East,90,4.0,4.9,55,0.00,,---,0.00,VWS V14.01,2013-03-14 22:46:00,
2013-03-14 17:47:00,43.7,28.6,29.29,SSW,202,4.9,4.9,55,0.00,,---,0.00,VWS V14.01,2013-03-14 22:47:00,
2013-03-14 17:48:00,43.7,28.6,29.29,SSE,158,6.0,6.0,55,0.00,,---,0.00,VWS V14.01,2013-03-14 22:48:00,
2013-03-14 17:49:00,43.5,28.4,29.29,SSE,158,8.7,8.7,55,0.00,,---,0.00,VWS V14.01,2013-03-14 22:49:00,
2013-03-14 17:50:00,43.5,28.4,29.29,South,180,4.0,8.7,55,0.00,,---,0.00,VWS V14.01,2013-03-14 22:50:00,
2013-03-14 17:51:00,43.7,28.6,29.29,South,180,7.8,7.8,55,0.00,,---,0.00,VWS V14.01,2013-03-14 22:51:00,
2013-03-14 17:52:00,43.7,28.6,29.29,South,180,7.6,7.8,55,0.00,,---,0.00,VWS V14.01,2013-03-14 22:52:00,
2013-03-14 17:53:00,43.5,28.4,29.29,SSW,202,5.6,5.6,55,0.00,,---,0.00,VWS V14.01,2013-03-14 22:53:00,
2013-03-14 17:54:00,43.5,28.4,29.29,SSW,202,5.6,5.6,55,0.00,,---,0.00,VWS V14.01,2013-03-14 22:54:00,
2013-03-14 17:55:00,43.5,28.4,29.29,South,180,6.0,6.0,55,0.00,,---,0.00,VWS V14.01,2013-03-14 22:55:00,
2013-03-14 17:56:00,43.5,28.4,29.29,South,180,8.7,8.7,55,0.00,,---,0.00,VWS V14.01,2013-03-14 22:56:00,
2013-03-14 17:57:00,43.5,28.4,29.29,SSW,202,9.8,9.8,55,0.00,,---,0.00,VWS V14.01,2013-03-14 22:57:00,
2013-03-14 17:58:00,43.5,28.4,29.29,South,180,5.4,5.4,55,0.00,,---,0.00,VWS V14.01,2013-03-14 22:58:00,
2013-03-14 17:59:00,43.5,28.4,29.29,SSE,158,5.4,5.4,55,0.00,,---,0.00,VWS V14.01,2013-03-14 22:59:00,
2013-03-14 18:00:00,43.5,28.4,29.29,South,180,8.5,8.5,55,0.00,,---,0.00,VWS V14.01,2013-03-14 23:00:00,
2013-03-14 18:01:00,43.5,28.4,29.29,SSW,202,7.8,8.5,55,0.00,,---,0.00,VWS V14.01,2013-03-14 23:01:00,
2013-03-14 18:02:00,43.3,28.3,29.29,South,180,4.9,7.8,55,0.00,,---,0.00,VWS V14.01,2013-03-14 23:02:00,
2013-03-14 18:03:00,43.3,28.3,29.29,SSW,202,6.3,6.3,55,0.00,,---,0.00,VWS V14.01,2013-03-14 23:03:00,
2013-03-14 18:04:00,43.3,28.3,29.29,SSW,202,6.3,6.3,55,0.00,,---,0.00,VWS V14.01,2013-03-14 23:04:00,
2013-03-14 18:05:00,43.3,28.3,29.29,SSE,158,2.7,6.3,55,0.00,,---,0.00,VWS V14.01,2013-03-14 23:05:00,
2013-03-14 18:06:00,43.3,28.3,29.29,SW,225,3.4,3.4,55,0.00,,---,0.00,VWS V14.01,2013-03-14 23:06:00,
2013-03-14 18:07:00,43.2,28.1,29.29,South,180,3.1,3.4,55,0.00,,---,0.00,VWS V14.01,2013-03-14 23:07:00,
2013-03-14 18:08:00,43.2,28.1,29.29,South,180,6.5,6.5,55,0.00,,---,0.00,VWS V14.01,2013-03-14 23:08:00,
2013-03-14 18:09:00,43.2,28.1,29.29,South,180,6.9,6.9,55,0.00,,---,0.00,VWS V14.01,2013-03-14 23:09:00,
2013-03-14 18:10:00,43.2,28.1,29.29,SSW,202,2.7,6.9,55,0.00,,---,0.00,VWS V14.01,2013-03-14 23:10:00,
2013-03-14 18:11:00,43.0,27.9,29.29,SW,225,3.1,3.1,55,0.00,,---,0.00,VWS V14.01,2013-03-14 23:11:00,
2013-03-14 18:12:00,43.0,27.9,29.29,SSW,202,7.2,7.2,55,0.00,,---,0.00,VWS V14.01,2013-03-14 23:12:00,
2013-03-14 18:13:00,43.0,27.9,29.29,SSE,158,3.1,7.2,55,0.00,,---,0.00,VWS V14.01,2013-03-14 23:13:00,
2013-03-14 18:14:00,42.8,27.8,29.29,South,180,8.7,8.7,55,0.00,,---,0.00,VWS V14.01,2013-03-14 23:14:00,
2013-03-14 18:15:00,42.8,27.8,29.29,SE,135,4.9,8.7,55,0.00,,---,0.00,VWS V14.01,2013-03-14 23:15:00,
2013-03-14 18:16:00,42.8,27.8,29.29,SSW,202,2.5,4.9,55,0.00,,---,0.00,VWS V14.01,2013-03-14 23:16:00,
2013-03-14 18:17:00,42.8,27.8,29.29,East,90,4.0,4.0,55,0.00,,---,0.00,VWS V14.01,2013-03-14 23:17:00,
2013-03-14 18:18:00,42.8,27.8,29.29,SE,135,4.0,4.0,55,0.00,,---,0.00,VWS V14.01,2013-03-14 23:18:00,
2013-03-14 18:19:00,42.6,28.0,29.29,South,180,4.9,4.9,56,0.00,,---,0.00,VWS V14.01,2013-03-14 23:19:00,
2013-03-14 18:20:00,42.6,28.0,29.29,South,180,2.7,4.9,56,0.00,,---,0.00,VWS V14.01,2013-03-14 23:20:00,
2013-03-14 18:21:00,42.4,27.9,29.29,ESE,112,4.0,4.0,56,0.00,,---,0.00,VWS V14.01,2013-03-14 23:21:00,
2013-03-14 18:22:00,42.4,27.9,29.29,SSW,202,3.4,4.0,56,0.00,,---,0.00,VWS V14.01,2013-03-14 23:22:00,
2013-03-14 18:23:00,42.4,27.9,29.29,ENE,68,5.6,5.6,56,0.00,,---,0.00,VWS V14.01,2013-03-14 23:23:00,
2013-03-14 18:24:00,42.4,27.9,29.29,SSE,158,6.0,6.0,56,0.00,,---,0.00,VWS V14.01,2013-03-14 23:24:00,
2013-03-14 18:25:00,42.4,27.9,29.29,SSW,202,4.0,6.0,56,0.00,,---,0.00,VWS V14.01,2013-03-14 23:25:00,
2013-03-14 18:26:00,42.3,27.7,29.29,SSE,158,3.6,4.0,56,0.00,,---,0.00,VWS V14.01,2013-03-14 23:26:00,
2013-03-14 18:27:00,42.3,27.7,29.29,East,90,4.0,4.0,56,0.00,,---,0.00,VWS V14.01,2013-03-14 23:27:00,
2013-03-14 18:28:00,42.3,27.7,29.29,SE,135,5.8,5.8,56,0.00,,---,0.00,VWS V14.01,2013-03-14 23:28:00,
2013-03-14 18:29:00,42.3,27.7,29.29,South,180,2.7,5.8,56,0.00,,---,0.00,VWS V14.01,2013-03-14 23:29:00,
2013-03-14 18:30:00,42.3,27.7,29.29,SE,135,2.9,2.9,56,0.00,,---,0.00,VWS V14.01,2013-03-14 23:30:00,
2013-03-14 18:31:00,42.3,27.7,29.29,South,180,2.5,2.9,56,0.00,,---,0.00,VWS V14.01,2013-03-14 23:31:00,
2013-03-14 18:32:00,42.1,27.5,29.29,SE,135,4.9,4.9,56,0.00,,---,0.00,VWS V14.01,2013-03-14 23:32:00,
2013-03-14 18:33:00,42.1,28.0,29.29,ESE,112,4.3,4.9,57,0.00,,---,0.00,VWS V14.01,2013-03-14 23:33:00,
2013-03-14 18:34:00,42.1,28.0,29.29,SSE,158,2.5,4.3,57,0.00,,---,0.00,VWS V14.01,2013-03-14 23:34:00,
2013-03-14 18:35:00,41.9,27.8,29.29,South,180,3.6,3.6,57,0.00,,---,0.00,VWS V14.01,2013-03-14 23:35:00,
2013-03-14 18:36:00,41.9,27.8,29.29,SSE,158,2.2,3.6,57,0.00,,---,0.00,VWS V14.01,2013-03-14 23:36:00,
2013-03-14 18:37:00,41.9,27.8,29.29,South,180,4.7,5.8,57,0.00,,---,0.00,VWS V14.01,2013-03-14 23:37:00,
2013-03-14 18:38:00,41.9,27.8,29.29,South,180,2.9,4.7,57,0.00,,---,0.00,VWS V14.01,2013-03-14 23:38:00,
2013-03-14 18:39:00,41.7,27.6,29.29,East,90,4.3,4.3,57,0.00,,---,0.00,VWS V14.01,2013-03-14 23:39:00,
2013-03-14 18:40:00,41.7,27.6,29.29,ESE,112,4.3,4.3,57,0.00,,---,0.00,VWS V14.01,2013-03-14 23:40:00,
2013-03-14 18:41:00,41.7,27.6,29.29,SE,135,8.7,8.7,57,0.00,,---,0.00,VWS V14.01,2013-03-14 23:41:00,
2013-03-14 18:42:00,41.5,27.5,29.29,SE,135,3.8,8.7,57,0.00,,---,0.00,VWS V14.01,2013-03-14 23:42:00,
2013-03-14 18:43:00,41.5,27.5,29.29,South,180,2.7,3.8,57,0.00,,---,0.00,VWS V14.01,2013-03-14 23:43:00,
2013-03-14 18:44:00,41.5,27.5,29.29,East,90,2.5,3.8,57,0.00,,---,0.00,VWS V14.01,2013-03-14 23:44:00,
2013-03-14 18:45:00,41.5,27.5,29.29,ESE,112,0.0,2.5,57,0.00,,---,0.00,VWS V14.01,2013-03-14 23:45:00,
2013-03-14 18:46:00,41.5,27.5,29.29,SE,135,3.6,3.6,57,0.00,,---,0.00,VWS V14.01,2013-03-14 23:46:00,
2013-03-14 18:47:00,41.5,27.5,29.29,SE,135,2.5,3.6,57,0.00,,---,0.00,VWS V14.01,2013-03-14 23:47:00,
2013-03-14 18:48:00,41.5,27.5,29.29,ENE,68,2.5,2.5,57,0.00,,---,0.00,VWS V14.01,2013-03-14 23:48:00,
2013-03-14 18:49:00,41.4,27.3,29.29,SE,135,2.7,2.7,57,0.00,,---,0.00,VWS V14.01,2013-03-14 23:49:00,
2013-03-14 18:50:00,41.4,27.3,29.29,ENE,68,0.9,2.7,57,0.00,,---,0.00,VWS V14.01,2013-03-14 23:50:00,
2013-03-14 18:51:00,41.4,27.7,29.29,East,90,1.3,1.3,58,0.00,,---,0.00,VWS V14.01,2013-03-14 23:51:00,
2013-03-14 18:52:00,41.4,27.7,29.29,SSE,158,0.0,1.3,58,0.00,,---,0.00,VWS V14.01,2013-03-14 23:52:00,
2013-03-14 18:53:00,41.2,27.5,29.29,SSE,158,0.0,0.0,58,0.00,,---,0.00,VWS V14.01,2013-03-14 23:53:00,
2013-03-14 18:54:00,41.2,27.5,29.29,South,180,2.7,2.7,58,0.00,,---,0.00,VWS V14.01,2013-03-14 23:54:00,
2013-03-14 18:55:00,41.0,27.4,29.29,SE,135,3.1,3.1,58,0.00,,---,0.00,VWS V14.01,2013-03-14 23:55:00,
2013-03-14 18:56:00,41.0,27.4,29.29,ESE,112,1.1,3.1,58,0.00,,---,0.00,VWS V14.01,2013-03-14 23:56:00,
2013-03-14 18:57:00,41.0,27.4,29.29,ENE,68,3.6,3.6,58,0.00,,---,0.00,VWS V14.01,2013-03-14 23:57:00,
2013-03-14 18:58:00,41.0,27.4,29.29,SSE,158,2.9,3.6,58,0.00,,---,0.00,VWS V14.01,2013-03-14 23:58:00,
2013-03-14 18:59:00,41.0,27.4,29.29,SSW,202,2.5,2.9,58,0.00,,---,0.00,VWS V14.01,2013-03-14 23:59:00,
2013-03-14 19:00:00,40.8,27.6,29.29,East,90,1.3,2.5,59,0.00,,---,0.00,VWS V14.01,2013-03-15 00:00:00,
2013-03-14 19:01:00,40.8,27.6,29.29,SSE,158,4.9,4.9,59,0.00,,---,0.00,VWS V14.01,2013-03-15 00:01:00,
2013-03-14 19:02:00,40.6,27.5,29.29,South,180,3.6,4.9,59,0.00,,---,0.00,VWS V14.01,2013-03-15 00:02:00,
2013-03-14 19:03:00,40.6,27.5,29.29,ESE,112,1.6,3.6,59,0.00,,---,0.00,VWS V14.01,2013-03-15 00:03:00,
2013-03-14 19:04:00,40.6,27.5,29.29,ESE,112,1.1,1.1,59,0.00,,---,0.00,VWS V14.01,2013-03-15 00:04:00,
2013-03-14 19:05:00,40.5,27.3,29.29,SE,135,3.8,3.8,59,0.00,,---,0.00,VWS V14.01,2013-03-15 00:05:00,
2013-03-14 19:06:00,40.5,27.3,29.29,SSE,158,2.0,3.8,59,0.00,,---,0.00,VWS V14.01,2013-03-15 00:06:00,
2013-03-14 19:07:00,40.5,27.3,29.29,SSW,202,2.5,2.5,59,0.00,,---,0.00,VWS V14.01,2013-03-15 00:07:00,
2013-03-14 19:08:00,40.5,27.3,29.29,SE,135,2.0,2.5,59,0.00,,---,0.00,VWS V14.01,2013-03-15 00:08:00,
2013-03-14 19:09:00,40.5,27.3,29.29,SSE,158,2.9,2.9,59,0.00,,---,0.00,VWS V14.01,2013-03-15 00:09:00,
2013-03-14 19:10:00,40.5,27.3,29.29,ESE,112,2.9,2.9,59,0.00,,---,0.00,VWS V14.01,2013-03-15 00:10:00,
2013-03-14 19:11:00,40.3,27.1,29.29,SSE,158,3.8,3.8,59,0.00,,---,0.00,VWS V14.01,2013-03-15 00:11:00,
2013-03-14 19:12:00,40.3,27.1,29.29,ESE,112,1.3,3.8,59,0.00,,---,0.00,VWS V14.01,2013-03-15 00:12:00,
2013-03-14 19:13:00,40.3,27.1,29.29,SSE,158,4.0,4.0,59,0.00,,---,0.00,VWS V14.01,2013-03-15 00:13:00,
2013-03-14 19:14:00,40.3,27.5,29.29,SSE,158,2.0,4.0,60,0.00,,---,0.00,VWS V14.01,2013-03-15 00:14:00,
2013-03-14 19:15:00,40.3,27.5,29.29,SSW,202,2.0,2.0,60,0.00,,---,0.00,VWS V14.01,2013-03-15 00:15:00,
2013-03-14 19:16:00,40.1,27.3,29.29,ESE,112,2.7,2.7,60,0.00,,---,0.00,VWS V14.01,2013-03-15 00:16:00,
2013-03-14 19:17:00,40.1,27.3,29.29,SE,135,3.4,3.4,60,0.00,,---,0.00,VWS V14.01,2013-03-15 00:17:00,
2013-03-14 19:18:00,39.9,27.2,29.29,SE,135,2.9,3.4,60,0.00,,---,0.00,VWS V14.01,2013-03-15 00:18:00,
2013-03-14 19:19:00,39.9,27.2,29.29,East,90,1.1,1.1,60,0.00,,---,0.00,VWS V14.01,2013-03-15 00:19:00,
2013-03-14 19:20:00,39.9,27.2,29.29,SSE,158,0.0,1.1,60,0.00,,---,0.00,VWS V14.01,2013-03-15 00:20:00,
2013-03-14 19:21:00,39.9,27.2,29.29,SE,135,3.1,3.1,60,0.00,,---,0.00,VWS V14.01,2013-03-15 00:21:00,
2013-03-14 19:22:00,39.9,27.2,29.29,SSE,158,2.7,3.1,60,0.00,,---,0.00,VWS V14.01,2013-03-15 00:22:00,
2013-03-14 19:23:00,39.7,27.0,29.29,East,90,1.6,2.7,60,0.00,,---,0.00,VWS V14.01,2013-03-15 00:23:00,
2013-03-14 19:24:00,39.7,27.0,29.29,SE,135,2.7,2.7,60,0.00,,---,0.00,VWS V14.01,2013-03-15 00:24:00,
2013-03-14 19:25:00,39.7,27.0,29.29,ESE,112,3.6,3.6,60,0.00,,---,0.00,VWS V14.01,2013-03-15 00:25:00,
2013-03-14 19:26:00,39.6,26.8,29.29,SSE,158,4.7,4.7,60,0.00,,---,0.00,VWS V14.01,2013-03-15 00:26:00,
2013-03-14 19:27:00,39.6,26.8,29.29,SSE,158,2.9,4.7,60,0.00,,---,0.00,VWS V14.01,2013-03-15 00:27:00,
2013-03-14 19:28:00,39.6,26.8,29.29,South,180,2.5,2.9,60,0.00,,---,0.00,VWS V14.01,2013-03-15 00:28:00,
2013-03-14 19:29:00,39.6,26.8,29.29,East,90,1.6,1.6,60,0.00,,---,0.00,VWS V14.01,2013-03-15 00:29:00,
2013-03-14 19:30:00,39.4,26.7,29.29,South,180,4.3,4.3,60,0.00,,---,0.00,VWS V14.01,2013-03-15 00:30:00,
2013-03-14 19:31:00,39.4,26.7,29.29,South,180,4.3,4.3,60,0.00,,---,0.00,VWS V14.01,2013-03-15 00:31:00,
2013-03-14 19:32:00,39.4,26.7,29.29,East,90,2.9,4.3,60,0.00,,---,0.00,VWS V14.01,2013-03-15 00:32:00,
2013-03-14 19:33:00,39.4,26.7,29.29,SSE,158,2.7,2.9,60,0.00,,---,0.00,VWS V14.01,2013-03-15 00:33:00,
2013-03-14 19:34:00,39.4,27.1,29.29,SE,135,4.3,4.3,61,0.00,,---,0.00,VWS V14.01,2013-03-15 00:34:00,
2013-03-14 19:35:00,39.4,27.1,29.29,South,180,1.3,4.3,61,0.00,,---,0.00,VWS V14.01,2013-03-15 00:35:00,
2013-03-14 19:36:00,39.4,27.1,29.29,SE,135,0.0,1.3,61,0.00,,---,0.00,VWS V14.01,2013-03-15 00:36:00,
2013-03-14 19:37:00,39.2,26.9,29.29,South,180,2.5,2.5,61,0.00,,---,0.00,VWS V14.01,2013-03-15 00:37:00,
2013-03-14 19:38:00,39.2,26.9,29.29,SE,135,2.5,2.5,61,0.00,,---,0.00,VWS V14.01,2013-03-15 00:38:00,
2013-03-14 19:39:00,39.2,26.9,29.29,SSE,158,2.7,2.7,61,0.00,,---,0.00,VWS V14.01,2013-03-15 00:39:00,
2013-03-14 19:40:00,39.2,26.9,29.29,SSE,158,2.7,2.7,61,0.00,,---,0.00,VWS V14.01,2013-03-15 00:40:00,
2013-03-14 19:41:00,39.2,26.9,29.29,SSE,158,1.6,2.7,61,0.00,,---,0.00,VWS V14.01,2013-03-15 00:41:00,
2013-03-14 19:42:00,39.2,26.9,29.29,ESE,112,0.0,1.6,61,0.00,,---,0.00,VWS V14.01,2013-03-15 00:42:00,
2013-03-14 19:43:00,39.2,26.9,29.29,ESE,112,2.9,2.9,61,0.00,,---,0.00,VWS V14.01,2013-03-15 00:43:00,
2013-03-14 19:44:00,39.0,26.7,29.29,SE,135,1.3,1.3,61,0.00,,---,0.00,VWS V14.01,2013-03-15 00:44:00,
2013-03-14 19:45:00,39.0,26.7,29.29,SE,135,0.0,1.3,61,0.00,,---,0.00,VWS V14.01,2013-03-15 00:45:00,
2013-03-14 19:46:00,39.0,27.1,29.29,SE,135,0.0,0.0,62,0.00,,---,0.00,VWS V14.01,2013-03-15 00:46:00,
2013-03-14 19:47:00,39.0,27.1,29.29,SE,135,0.0,0.0,62,0.00,,---,0.00,VWS V14.01,2013-03-15 00:47:00,
2013-03-14 19:48:00,38.8,27.0,29.29,SE,135,0.0,0.0,62,0.00,,---,0.00,VWS V14.01,2013-03-15 00:48:00,
2013-03-14 19:49:00,38.8,27.0,29.29,SE,135,0.0,0.0,62,0.00,,---,0.00,VWS V14.01,2013-03-15 00:49:00,
2013-03-14 19:50:00,38.8,27.0,29.29,SE,135,0.0,0.0,62,0.00,,---,0.00,VWS V14.01,2013-03-15 00:50:00,
2013-03-14 19:51:00,38.8,27.0,29.29,NE,45,1.6,3.1,62,0.00,,---,0.00,VWS V14.01,2013-03-15 00:51:00,
2013-03-14 19:52:00,38.8,27.0,29.29,SSE,158,0.0,1.6,62,0.00,,---,0.00,VWS V14.01,2013-03-15 00:52:00,
2013-03-14 19:53:00,38.7,26.8,29.29,SSE,158,1.6,1.6,62,0.00,,---,0.00,VWS V14.01,2013-03-15 00:53:00,
2013-03-14 19:54:00,38.7,26.8,29.29,South,180,0.0,1.6,62,0.00,,---,0.00,VWS V14.01,2013-03-15 00:54:00,
2013-03-14 19:55:00,38.7,26.8,29.29,South,180,0.0,1.6,62,0.00,,---,0.00,VWS V14.01,2013-03-15 00:55:00,
2013-03-14 19:56:00,38.7,26.8,29.29,East,90,0.0,0.0,62,0.00,,---,0.00,VWS V14.01,2013-03-15 00:56:00,
2013-03-14 19:57:00,38.7,26.8,29.29,SSE,158,3.6,3.6,62,0.00,,---,0.00,VWS V14.01,2013-03-15 00:57:00,
2013-03-14 19:58:00,38.5,26.6,29.29,SSE,158,0.9,3.6,62,0.00,,---,0.00,VWS V14.01,2013-03-15 00:58:00,
2013-03-14 19:59:00,38.5,26.6,29.29,ENE,68,1.6,3.4,62,0.00,,---,0.00,VWS V14.01,2013-03-15 00:59:00,
2013-03-14 20:00:00,38.5,26.6,29.29,ENE,68,1.6,3.4,62,0.00,,---,0.00,VWS V14.01,2013-03-15 01:00:00,
2013-03-14 20:01:00,38.5,26.6,29.29,East,90,0.0,1.6,62,0.00,,---,0.00,VWS V14.01,2013-03-15 01:01:00,
2013-03-14 20:02:00,38.5,26.6,29.29,SSE,158,2.2,2.2,62,0.00,,---,0.00,VWS V14.01,2013-03-15 01:02:00,
2013-03-14 20:03:00,38.5,26.6,29.29,SSE,158,0.0,2.2,62,0.00,,---,0.00,VWS V14.01,2013-03-15 01:03:00,
2013-03-14 20:04:00,38.5,26.6,29.29,SSW,202,3.4,3.4,62,0.00,,---,0.00,VWS V14.01,2013-03-15 01:04:00,
2013-03-14 20:05:00,38.3,26.8,29.29,SSW,202,3.4,3.4,63,0.00,,---,0.00,VWS V14.01,2013-03-15 01:05:00,
2013-03-14 20:06:00,38.3,26.8,29.29,South,180,0.9,3.4,63,0.00,,---,0.00,VWS V14.01,2013-03-15 01:06:00,
2013-03-14 20:07:00,38.3,26.8,29.29,SSE,158,2.0,2.0,63,0.00,,---,0.00,VWS V14.01,2013-03-15 01:07:00,
2013-03-14 20:08:00,38.3,26.8,29.29,SSE,158,0.0,2.0,63,0.00,,---,0.00,VWS V14.01,2013-03-15 01:08:00,
2013-03-14 20:09:00,38.1,26.6,29.29,ESE,112,2.0,2.0,63,0.00,,---,0.00,VWS V14.01,2013-03-15 01:09:00,
2013-03-14 20:10:00,38.1,26.6,29.29,SSW,202,0.9,2.0,63,0.00,,---,0.00,VWS V14.01,2013-03-15 01:10:00,
2013-03-14 20:11:00,38.1,26.6,29.29,East,90,0.9,0.9,63,0.00,,---,0.00,VWS V14.01,2013-03-15 01:11:00,
2013-03-14 20:12:00,38.1,26.6,29.29,SE,135,0.0,0.9,63,0.00,,---,0.00,VWS V14.01,2013-03-15 01:12:00,
2013-03-14 20:13:00,38.1,26.6,29.29,South,180,2.7,2.7,63,0.00,,---,0.00,VWS V14.01,2013-03-15 01:13:00,
2013-03-14 20:14:00,37.9,26.5,29.29,South,180,2.0,2.7,63,0.00,,---,0.00,VWS V14.01,2013-03-15 01:14:00,
2013-03-14 20:15:00,37.9,26.5,29.29,SSE,158,5.8,5.8,63,0.00,,---,0.00,VWS V14.01,2013-03-15 01:15:00,
2013-03-14 20:16:00,37.9,26.5,29.29,SE,135,1.6,5.8,63,0.00,,---,0.00,VWS V14.01,2013-03-15 01:16:00,
2013-03-14 20:17:00,37.9,26.5,29.29,SE,135,2.2,2.2,63,0.00,,---,0.00,VWS V14.01,2013-03-15 01:17:00,
2013-03-14 20:18:00,37.9,26.5,29.29,SSE,158,6.0,6.0,63,0.00,,---,0.00,VWS V14.01,2013-03-15 01:18:00,
2013-03-14 20:19:00,37.9,26.5,29.29,SE,135,1.3,6.0,63,0.00,,---,0.00,VWS V14.01,2013-03-15 01:19:00,
2013-03-14 20:20:00,37.9,26.5,29.29,ESE,112,1.6,1.6,63,0.00,,---,0.00,VWS V14.01,2013-03-15 01:20:00,
2013-03-14 20:21:00,37.9,26.5,29.29,ESE,112,1.3,1.6,63,0.00,,---,0.00,VWS V14.01,2013-03-15 01:21:00,
2013-03-14 20:22:00,37.9,26.5,29.29,SE,135,1.6,2.0,63,0.00,,---,0.00,VWS V14.01,2013-03-15 01:22:00,
2013-03-14 20:23:00,37.8,26.7,29.29,SSE,158,3.6,3.6,64,0.00,,---,0.00,VWS V14.01,2013-03-15 01:23:00,
2013-03-14 20:24:00,37.8,26.7,29.29,NNE,22,1.1,3.6,64,0.00,,---,0.00,VWS V14.01,2013-03-15 01:24:00,
2013-03-14 20:25:00,37.8,26.7,29.29,SSE,158,0.9,1.1,64,0.00,,---,0.00,VWS V14.01,2013-03-15 01:25:00,
2013-03-14 20:26:00,37.8,26.7,29.29,SE,135,2.2,2.2,64,0.00,,---,0.00,VWS V14.01,2013-03-15 01:26:00,
2013-03-14 20:27:00,37.8,26.7,29.29,ESE,112,0.9,2.2,64,0.00,,---,0.00,VWS V14.01,2013-03-15 01:27:00,
2013-03-14 20:28:00,37.6,26.5,29.29,South,180,0.0,1.3,64,0.00,,---,0.00,VWS V14.01,2013-03-15 01:28:00,
2013-03-14 20:29:00,37.6,26.5,29.29,East,90,1.1,1.1,64,0.00,,---,0.00,VWS V14.01,2013-03-15 01:29:00,
2013-03-14 20:30:00,37.6,26.5,29.29,East,90,0.0,1.1,64,0.00,,---,0.00,VWS V14.01,2013-03-15 01:30:00,
2013-03-14 20:31:00,37.6,26.5,29.29,ESE,112,2.5,2.5,64,0.00,,---,0.00,VWS V14.01,2013-03-15 01:31:00,
2013-03-14 20:32:00,37.6,26.5,29.29,SE,135,2.7,2.7,64,0.00,,---,0.00,VWS V14.01,2013-03-15 01:32:00,
2013-03-14 20:33:00,37.6,26.5,29.29,South,180,2.7,2.7,64,0.00,,---,0.00,VWS V14.01,2013-03-15 01:33:00,
2013-03-14 20:34:00,37.4,26.4,29.29,SE,135,5.4,5.4,64,0.00,,---,0.00,VWS V14.01,2013-03-15 01:34:00,
2013-03-14 20:35:00,37.4,26.4,29.29,SSW,202,0.0,0.0,64,0.00,,---,0.00,VWS V14.01,2013-03-15 01:35:00,
2013-03-14 20:36:00,37.4,26.4,29.29,East,90,3.1,3.1,64,0.00,,---,0.00,VWS V14.01,2013-03-15 01:36:00,
2013-03-14 20:37:00,37.4,26.4,29.29,ENE,68,2.0,3.1,64,0.00,,---,0.00,VWS V14.01,2013-03-15 01:37:00,
2013-03-14 20:38:00,37.4,26.4,29.29,ENE,68,0.0,2.0,64,0.00,,---,0.00,VWS V14.01,2013-03-15 01:38:00,
2013-03-14 20:39:00,37.4,26.4,29.29,South,180,3.1,3.1,64,0.00,,---,0.00,VWS V14.01,2013-03-15 01:39:00,
2013-03-14 20:40:00,37.4,26.4,29.29,ESE,112,1.1,1.1,64,0.00,,---,0.00,VWS V14.01,2013-03-15 01:40:00,
2013-03-14 20:41:00,37.4,26.4,29.29,ESE,112,0.0,1.1,64,0.00,,---,0.00,VWS V14.01,2013-03-15 01:41:00,
2013-03-14 20:42:00,37.4,26.4,29.29,SE,135,2.7,2.7,64,0.00,,---,0.00,VWS V14.01,2013-03-15 01:42:00,
2013-03-14 20:43:00,37.2,26.5,29.29,East,90,1.6,3.4,65,0.00,,---,0.00,VWS V14.01,2013-03-15 01:43:00,
2013-03-14 20:44:00,37.2,26.5,29.29,South,180,3.6,3.6,65,0.00,,---,0.00,VWS V14.01,2013-03-15 01:44:00,
2013-03-14 20:45:00,37.2,26.5,29.29,ESE,112,4.9,4.9,65,0.00,,---,0.00,VWS V14.01,2013-03-15 01:45:00,
2013-03-14 20:46:00,37.2,26.5,29.29,SE,135,1.6,4.9,65,0.00,,---,0.00,VWS V14.01,2013-03-15 01:46:00,
2013-03-14 20:47:00,37.2,26.5,29.29,SSE,158,0.9,1.6,65,0.00,,---,0.00,VWS V14.01,2013-03-15 01:47:00,
2013-03-14 20:48:00,37.0,26.4,29.29,SE,135,4.3,4.3,65,0.00,,---,0.00,VWS V14.01,2013-03-15 01:48:00,
2013-03-14 20:49:00,37.0,26.4,29.29,SSE,158,4.9,4.9,65,0.00,,---,0.00,VWS V14.01,2013-03-15 01:49:00,
2013-03-14 20:50:00,37.0,26.4,29.29,East,90,2.0,4.9,65,0.00,,---,0.00,VWS V14.01,2013-03-15 01:50:00,
2013-03-14 20:51:00,37.0,26.4,29.29,SSE,158,1.3,2.0,65,0.00,,---,0.00,VWS V14.01,2013-03-15 01:51:00,
2013-03-14 20:52:00,37.0,26.4,29.29,SSE,158,3.8,3.8,65,0.00,,---,0.00,VWS V14.01,2013-03-15 01:52:00,
2013-03-14 20:53:00,37.0,26.4,29.29,ESE,112,1.3,3.8,65,0.00,,---,0.00,VWS V14.01,2013-03-15 01:53:00,
2013-03-14 20:54:00,37.0,26.4,29.29,South,180,1.6,1.6,65,0.00,,---,0.00,VWS V14.01,2013-03-15 01:54:00,
2013-03-14 20:55:00,37.0,26.4,29.29,ENE,68,1.3,1.6,65,0.00,,---,0.00,VWS V14.01,2013-03-15 01:55:00,
2013-03-14 20:56:00,37.0,26.4,29.29,East,90,1.6,1.6,65,0.00,,---,0.00,VWS V14.01,2013-03-15 01:56:00,
2013-03-14 20:57:00,37.0,26.4,29.29,SSE,158,6.0,6.0,65,0.00,,---,0.00,VWS V14.01,2013-03-15 01:57:00,
2013-03-14 20:58:00,37.0,26.4,29.29,ESE,112,3.8,6.0,65,0.00,,---,0.00,VWS V14.01,2013-03-15 01:58:00,
2013-03-14 20:59:00,36.9,26.6,29.29,SSE,158,3.8,3.8,66,0.00,,---,0.00,VWS V14.01,2013-03-15 01:59:00,
2013-03-14 21:00:00,36.9,26.6,29.29,South,180,1.6,3.1,66,0.00,,---,0.00,VWS V14.01,2013-03-15 02:00:00,
2013-03-14 21:01:00,36.9,26.6,29.29,SE,135,3.6,3.6,66,0.00,,---,0.00,VWS V14.01,2013-03-15 02:01:00,
2013-03-14 21:02:00,36.9,26.6,29.29,ESE,112,1.1,3.6,66,0.00,,---,0.00,VWS V14.01,2013-03-15 02:02:00,
2013-03-14 21:03:00,36.9,26.6,29.29,South,180,2.5,2.5,66,0.00,,---,0.00,VWS V14.01,2013-03-15 02:03:00,
2013-03-14 21:04:00,36.9,26.6,29.29,SSE,158,4.3,4.3,66,0.00,,---,0.00,VWS V14.01,2013-03-15 02:04:00,
2013-03-14 21:05:00,36.7,26.4,29.29,ENE,68,3.8,3.8,66,0.00,,---,0.00,VWS V14.01,2013-03-15 02:05:00,
2013-03-14 21:06:00,36.7,26.4,29.29,South,180,3.6,3.8,66,0.00,,---,0.00,VWS V14.01,2013-03-15 02:06:00,
2013-03-14 21:07:00,36.7,26.4,29.29,SE,135,2.5,3.6,66,0.00,,---,0.00,VWS V14.01,2013-03-15 02:07:00,
2013-03-14 21:08:00,36.7,26.4,29.29,SSE,158,1.1,2.5,66,0.00,,---,0.00,VWS V14.01,2013-03-15 02:08:00,
2013-03-14 21:09:00,36.7,26.4,29.29,ESE,112,2.9,2.9,66,0.00,,---,0.00,VWS V14.01,2013-03-15 02:09:00,
2013-03-14 21:10:00,36.7,26.4,29.29,SE,135,3.4,3.8,66,0.00,,---,0.00,VWS V14.01,2013-03-15 02:10:00,
2013-03-14 21:11:00,36.7,26.4,29.29,SE,135,3.4,3.8,66,0.00,,---,0.00,VWS V14.01,2013-03-15 02:11:00,
2013-03-14 21:12:00,36.7,26.4,29.29,SE,135,4.0,4.0,66,0.00,,---,0.00,VWS V14.01,2013-03-15 02:12:00,
2013-03-14 21:13:00,36.7,26.4,29.29,SSE,158,2.7,4.0,66,0.00,,---,0.00,VWS V14.01,2013-03-15 02:13:00,
2013-03-14 21:14:00,36.7,26.4,29.29,ENE,68,1.6,2.7,66,0.00,,---,0.00,VWS V14.01,2013-03-15 02:14:00,
2013-03-14 21:15:00,36.7,26.4,29.29,SE,135,2.9,2.9,66,0.00,,---,0.00,VWS V14.01,2013-03-15 02:15:00,
2013-03-14 21:16:00,36.7,26.4,29.29,SE,135,2.9,2.9,66,0.00,,---,0.00,VWS V14.01,2013-03-15 02:16:00,
2013-03-14 21:17:00,36.7,26.4,29.29,South,180,3.6,3.6,66,0.00,,---,0.00,VWS V14.01,2013-03-15 02:17:00,
2013-03-14 21:18:00,36.5,26.2,29.29,SSE,158,2.9,3.6,66,0.00,,---,0.00,VWS V14.01,2013-03-15 02:18:00,
2013-03-14 21:19:00,36.5,26.2,29.29,SSE,158,1.3,2.9,66,0.00,,---,0.00,VWS V14.01,2013-03-15 02:19:00,
2013-03-14 21:20:00,36.5,26.2,29.29,ENE,68,2.7,2.7,66,0.00,,---,0.00,VWS V14.01,2013-03-15 02:20:00,
2013-03-14 21:21:00,36.5,26.2,29.29,SE,135,2.0,2.7,66,0.00,,---,0.00,VWS V14.01,2013-03-15 02:21:00,
2013-03-14 21:22:00,36.5,26.2,29.29,SE,135,3.1,3.8,66,0.00,,---,0.00,VWS V14.01,2013-03-15 02:22:00,
2013-03-14 21:23:00,36.5,26.2,29.29,SSE,158,4.9,4.9,66,0.00,,---,0.00,VWS V14.01,2013-03-15 02:23:00,
2013-03-14 21:24:00,36.5,26.2,29.29,SSE,158,3.1,4.9,66,0.00,,---,0.00,VWS V14.01,2013-03-15 02:24:00,
2013-03-14 21:25:00,36.3,26.1,29.29,SSE,158,1.1,3.1,66,0.00,,---,0.00,VWS V14.01,2013-03-15 02:25:00,
2013-03-14 21:26:00,36.3,26.1,29.29,SSE,158,2.7,2.7,66,0.00,,---,0.00,VWS V14.01,2013-03-15 02:26:00,
2013-03-14 21:27:00,36.3,26.4,29.29,SSE,158,3.1,3.1,67,0.00,,---,0.00,VWS V14.01,2013-03-15 02:27:00,
2013-03-14 21:28:00,36.3,26.4,29.29,SSW,202,3.4,3.4,67,0.00,,---,0.00,VWS V14.01,2013-03-15 02:28:00,
2013-03-14 21:29:00,36.3,26.1,29.29,East,90,2.7,3.4,66,0.00,,---,0.00,VWS V14.01,2013-03-15 02:29:00,
2013-03-14 21:30:00,36.3,26.1,29.29,NNE,22,2.5,2.7,66,0.00,,---,0.00,VWS V14.01,2013-03-15 02:30:00,
2013-03-14 21:31:00,36.3,26.1,29.29,SSE,158,3.4,3.4,66,0.00,,---,0.00,VWS V14.01,2013-03-15 02:31:00,
2013-03-14 21:32:00,36.1,26.2,29.29,ESE,112,2.9,3.4,67,0.00,,---,0.00,VWS V14.01,2013-03-15 02:32:00,
2013-03-14 21:33:00,36.1,26.2,29.29,ESE,112,2.9,2.9,67,0.00,,---,0.00,VWS V14.01,2013-03-15 02:33:00,
2013-03-14 21:34:00,36.1,26.2,29.29,SE,135,2.5,2.9,67,0.00,,---,0.00,VWS V14.01,2013-03-15 02:34:00,
2013-03-14 21:35:00,36.1,26.2,29.29,SSE,158,2.7,2.7,67,0.00,,---,0.00,VWS V14.01,2013-03-15 02:35:00,
2013-03-14 21:36:00,36.1,26.3,29.29,East,90,2.0,2.7,67,0.00,,---,0.00,VWS V14.01,2013-03-15 02:36:00,
2013-03-14 21:37:00,36.1,26.2,29.29,SSE,158,3.4,3.4,67,0.00,,---,0.00,VWS V14.01,2013-03-15 02:37:00,
2013-03-14 21:38:00,36.1,26.2,29.29,South,180,3.1,3.4,67,0.00,,---,0.00,VWS V14.01,2013-03-15 02:38:00,
2013-03-14 21:39:00,36.1,26.2,29.29,SE,135,3.8,3.8,67,0.00,,---,0.00,VWS V14.01,2013-03-15 02:39:00,
2013-03-14 21:40:00,36.1,26.2,29.29,SE,135,5.4,5.4,67,0.00,,---,0.00,VWS V14.01,2013-03-15 02:40:00,
2013-03-14 21:41:00,36.1,26.3,29.29,SE,135,1.1,1.1,67,0.00,,---,0.00,VWS V14.01,2013-03-15 02:41:00,
2013-03-14 21:42:00,36.1,26.2,29.29,SSW,202,2.9,2.9,67,0.00,,---,0.00,VWS V14.01,2013-03-15 02:42:00,
2013-03-14 21:43:00,36.0,26.1,29.29,SSE,158,4.0,5.6,67,0.00,,---,0.00,VWS V14.01,2013-03-15 02:43:00,
2013-03-14 21:44:00,36.0,26.1,29.29,SSE,158,4.0,4.0,67,0.00,,---,0.00,VWS V14.01,2013-03-15 02:44:00,
2013-03-14 21:45:00,36.0,26.1,29.29,SSE,158,4.0,4.0,67,0.00,,---,0.00,VWS V14.01,2013-03-15 02:45:00,
2013-03-14 21:46:00,36.0,26.1,29.29,East,90,4.0,4.0,67,0.00,,---,0.00,VWS V14.01,2013-03-15 02:46:00,
2013-03-14 21:47:00,36.0,26.1,29.29,South,180,2.7,4.0,67,0.00,,---,0.00,VWS V14.01,2013-03-15 02:47:00,
2013-03-14 21:48:00,36.0,26.1,29.29,East,90,6.0,6.0,67,0.00,,---,0.00,VWS V14.01,2013-03-15 02:48:00,
2013-03-14 21:49:00,36.0,26.1,29.29,SSE,158,4.0,6.0,67,0.00,,---,0.00,VWS V14.01,2013-03-15 02:49:00,
2013-03-14 21:50:00,35.8,25.9,29.29,South,180,2.9,4.0,67,0.00,,---,0.00,VWS V14.01,2013-03-15 02:50:00,
2013-03-14 21:51:00,35.8,25.9,29.29,South,180,2.9,2.9,67,0.00,,---,0.00,VWS V14.01,2013-03-15 02:51:00,
2013-03-14 21:52:00,35.8,25.9,29.29,South,180,2.9,2.9,67,0.00,,---,0.00,VWS V14.01,2013-03-15 02:52:00,
2013-03-14 21:53:00,35.8,25.9,29.29,SE,135,2.7,2.9,67,0.00,,---,0.00,VWS V14.01,2013-03-15 02:53:00,
2013-03-14 21:54:00,35.8,25.9,29.29,ENE,68,3.1,3.1,67,0.00,,---,0.00,VWS V14.01,2013-03-15 02:54:00,
2013-03-14 21:55:00,35.8,26.3,29.29,South,180,3.1,3.6,68,0.00,,---,0.00,VWS V14.01,2013-03-15 02:55:00,
2013-03-14 21:56:00,35.8,26.3,29.29,South,180,4.0,4.0,68,0.00,,---,0.00,VWS V14.01,2013-03-15 02:56:00,
2013-03-14 21:57:00,35.8,26.3,29.29,SSE,158,3.1,4.0,68,0.00,,---,0.00,VWS V14.01,2013-03-15 02:57:00,
2013-03-14 21:58:00,35.8,26.3,29.29,SSE,158,3.4,3.4,68,0.00,,---,0.00,VWS V14.01,2013-03-15 02:58:00,
2013-03-14 21:59:00,35.6,26.1,29.29,South,180,3.4,3.4,68,0.00,,---,0.00,VWS V14.01,2013-03-15 02:59:00,
2013-03-14 22:00:00,35.6,26.1,29.29,SE,135,3.6,4.9,68,0.00,,---,0.00,VWS V14.01,2013-03-15 03:00:00,
2013-03-14 22:01:00,35.6,26.1,29.29,ESE,112,3.6,3.6,68,0.00,,---,0.00,VWS V14.01,2013-03-15 03:01:00,
2013-03-14 22:02:00,35.6,26.1,29.29,ESE,112,3.6,3.6,68,0.00,,---,0.00,VWS V14.01,2013-03-15 03:02:00,
2013-03-14 22:03:00,35.6,26.1,29.29,SW,225,2.0,4.7,68,0.00,,---,0.00,VWS V14.01,2013-03-15 03:03:00,
2013-03-14 22:04:00,35.6,26.1,29.29,East,90,2.5,2.5,68,0.00,,---,0.00,VWS V14.01,2013-03-15 03:04:00,
2013-03-14 22:05:00,35.6,26.1,29.29,SSE,158,4.7,4.7,68,0.00,,---,0.00,VWS V14.01,2013-03-15 03:05:00,
2013-03-14 22:06:00,35.6,26.1,29.29,ESE,112,2.5,4.7,68,0.00,,---,0.00,VWS V14.01,2013-03-15 03:06:00,
2013-03-14 22:07:00,35.6,26.1,29.29,SSE,158,5.4,5.4,68,0.00,,---,0.00,VWS V14.01,2013-03-15 03:07:00,
2013-03-14 22:08:00,35.6,26.1,29.29,SSE,158,4.3,5.4,68,0.00,,---,0.00,VWS V14.01,2013-03-15 03:08:00,
2013-03-14 22:09:00,35.6,26.5,29.29,South,180,3.1,4.3,69,0.00,,---,0.00,VWS V14.01,2013-03-15 03:09:00,
2013-03-14 22:10:00,35.6,26.5,29.29,SE,135,1.1,3.1,69,0.00,,---,0.00,VWS V14.01,2013-03-15 03:10:00,
2013-03-14 22:11:00,35.4,26.3,29.29,SSE,158,5.4,5.4,69,0.00,,---,0.00,VWS V14.01,2013-03-15 03:11:00,
2013-03-14 22:12:00,35.4,26.3,29.29,South,180,2.7,5.4,69,0.00,,---,0.00,VWS V14.01,2013-03-15 03:12:00,
2013-03-14 22:13:00,35.4,26.3,29.29,SSE,158,2.0,2.7,69,0.00,,---,0.00,VWS V14.01,2013-03-15 03:13:00,
2013-03-14 22:14:00,35.4,26.3,29.29,SE,135,5.6,5.6,69,0.00,,---,0.00,VWS V14.01,2013-03-15 03:14:00,
2013-03-14 22:15:00,35.4,26.3,29.29,ESE,112,4.3,5.6,69,0.00,,---,0.00,VWS V14.01,2013-03-15 03:15:00,
2013-03-14 22:16:00,35.4,26.3,29.29,ENE,68,2.7,4.3,69,0.00,,---,0.00,VWS V14.01,2013-03-15 03:16:00,
2013-03-14 22:17:00,35.4,26.3,29.29,SSW,202,2.7,2.7,69,0.00,,---,0.00,VWS V14.01,2013-03-15 03:17:00,
2013-03-14 22:18:00,35.4,26.3,29.29,NNW,338,2.9,3.1,69,0.00,,---,0.00,VWS V14.01,2013-03-15 03:18:00,
2013-03-14 22:19:00,35.4,26.3,29.29,East,90,2.9,2.9,69,0.00,,---,0.00,VWS V14.01,2013-03-15 03:19:00,
2013-03-14 22:20:00,35.2,26.1,29.29,ESE,112,4.0,4.0,69,0.00,,---,0.00,VWS V14.01,2013-03-15 03:20:00,
2013-03-14 22:21:00,35.2,26.1,29.29,South,180,4.7,4.7,69,0.00,,---,0.00,VWS V14.01,2013-03-15 03:21:00,
2013-03-14 22:22:00,35.2,26.1,29.29,SSW,202,4.0,4.7,69,0.00,,---,0.00,VWS V14.01,2013-03-15 03:22:00,
2013-03-14 22:23:00,35.2,26.1,29.29,South,180,3.4,3.4,69,0.00,,---,0.00,VWS V14.01,2013-03-15 03:23:00,
2013-03-14 22:24:00,35.2,26.1,29.29,South,180,3.8,3.8,69,0.00,,---,0.00,VWS V14.01,2013-03-15 03:24:00,
2013-03-14 22:25:00,35.1,25.9,29.29,SSE,158,4.7,4.7,69,0.00,,---,0.00,VWS V14.01,2013-03-15 03:25:00,
2013-03-14 22:26:00,35.1,25.9,29.29,South,180,2.9,4.7,69,0.00,,---,0.00,VWS V14.01,2013-03-15 03:26:00,
2013-03-14 22:27:00,35.1,25.9,29.29,SE,135,2.9,2.9,69,0.00,,---,0.00,VWS V14.01,2013-03-15 03:27:00,
2013-03-14 22:28:00,35.1,25.9,29.29,SSW,202,4.9,4.9,69,0.00,,---,0.00,VWS V14.01,2013-03-15 03:28:00,
2013-03-14 22:29:00,35.1,25.9,29.29,South,180,3.1,4.9,69,0.00,,---,0.00,VWS V14.01,2013-03-15 03:29:00,
2013-03-14 22:30:00,35.1,26.3,29.29,SSE,158,3.4,3.4,70,0.00,,---,0.00,VWS V14.01,2013-03-15 03:30:00,
2013-03-14 22:31:00,35.1,26.3,29.29,SSW,202,2.7,3.4,70,0.00,,---,0.00,VWS V14.01,2013-03-15 03:31:00,
2013-03-14 22:32:00,35.1,26.3,29.29,SSE,158,4.9,4.9,70,0.00,,---,0.00,VWS V14.01,2013-03-15 03:32:00,
2013-03-14 22:33:00,35.1,26.3,29.29,SE,135,3.1,4.9,70,0.00,,---,0.00,VWS V14.01,2013-03-15 03:33:00,
2013-03-14 22:34:00,34.9,26.1,29.29,SSE,158,2.0,3.1,70,0.00,,---,0.00,VWS V14.01,2013-03-15 03:34:00,
2013-03-14 22:35:00,34.9,26.1,29.29,South,180,2.9,2.9,70,0.00,,---,0.00,VWS V14.01,2013-03-15 03:35:00,
2013-03-14 22:36:00,34.9,26.1,29.29,SSW,202,2.7,2.9,70,0.00,,---,0.00,VWS V14.01,2013-03-15 03:36:00,
2013-03-14 22:37:00,34.9,26.1,29.29,SSW,202,3.4,3.4,70,0.00,,---,0.00,VWS V14.01,2013-03-15 03:37:00,
2013-03-14 22:38:00,34.9,26.1,29.29,SSW,202,1.6,3.4,70,0.00,,---,0.00,VWS V14.01,2013-03-15 03:38:00,
2013-03-14 22:39:00,34.9,26.1,29.29,SSW,202,2.9,2.9,70,0.00,,---,0.00,VWS V14.01,2013-03-15 03:39:00,
2013-03-14 22:40:00,34.9,26.1,29.29,South,180,1.3,2.9,70,0.00,,---,0.00,VWS V14.01,2013-03-15 03:40:00,
2013-03-14 22:41:00,34.9,26.1,29.29,ESE,112,2.0,2.0,70,0.00,,---,0.00,VWS V14.01,2013-03-15 03:41:00,
2013-03-14 22:42:00,34.9,26.1,29.29,SSW,202,1.6,1.6,70,0.00,,---,0.00,VWS V14.01,2013-03-15 03:42:00,
2013-03-14 22:43:00,34.9,26.1,29.29,ESE,112,1.6,1.6,70,0.00,,---,0.00,VWS V14.01,2013-03-15 03:43:00,
2013-03-14 22:44:00,34.9,26.1,29.29,SSE,158,3.6,3.6,70,0.00,,---,0.00,VWS V14.01,2013-03-15 03:44:00,
2013-03-14 22:45:00,34.9,26.1,29.29,South,180,2.0,3.6,70,0.00,,---,0.00,VWS V14.01,2013-03-15 03:45:00,
2013-03-14 22:46:00,34.9,26.1,29.29,SSW,202,1.6,2.0,70,0.00,,---,0.00,VWS V14.01,2013-03-15 03:46:00,
2013-03-14 22:47:00,34.9,26.1,29.29,SE,135,3.1,3.1,70,0.00,,---,0.00,VWS V14.01,2013-03-15 03:47:00,
2013-03-14 22:48:00,34.7,25.9,29.29,South,180,2.9,3.1,70,0.00,,---,0.00,VWS V14.01,2013-03-15 03:48:00,
2013-03-14 22:49:00,34.7,25.9,29.29,South,180,2.7,2.9,70,0.00,,---,0.00,VWS V14.01,2013-03-15 03:49:00,
2013-03-14 22:50:00,34.7,25.9,29.29,SSE,158,4.7,4.7,70,0.00,,---,0.00,VWS V14.01,2013-03-15 03:50:00,
2013-03-14 22:51:00,34.7,25.9,29.29,South,180,2.7,4.7,70,0.00,,---,0.00,VWS V14.01,2013-03-15 03:51:00,
2013-03-14 22:52:00,34.7,25.9,29.29,SE,135,1.3,2.2,70,0.00,,---,0.00,VWS V14.01,2013-03-15 03:52:00,
2013-03-14 22:53:00,34.7,25.9,29.29,SSW,202,3.4,3.4,70,0.00,,---,0.00,VWS V14.01,2013-03-15 03:53:00,
2013-03-14 22:54:00,34.7,25.9,29.29,SSW,202,3.1,3.4,70,0.00,,---,0.00,VWS V14.01,2013-03-15 03:54:00,
2013-03-14 22:55:00,34.7,25.9,29.29,SSE,158,3.1,3.1,70,0.00,,---,0.00,VWS V14.01,2013-03-15 03:55:00,
2013-03-14 22:56:00,34.7,25.9,29.29,South,180,3.1,3.1,70,0.00,,---,0.00,VWS V14.01,2013-03-15 03:56:00,
2013-03-14 22:57:00,34.5,25.8,29.29,SSW,202,2.0,3.4,70,0.00,,---,0.00,VWS V14.01,2013-03-15 03:57:00,
2013-03-14 22:58:00,34.5,25.8,29.29,SSW,202,2.0,3.4,70,0.00,,---,0.00,VWS V14.01,2013-03-15 03:58:00,
2013-03-14 22:59:00,34.5,26.1,29.29,SSE,158,2.0,2.0,71,0.00,,---,0.00,VWS V14.01,2013-03-15 03:59:00,
2013-03-14 23:00:00,34.5,26.1,29.29,SSW,202,2.7,2.7,71,0.00,,---,0.00,VWS V14.01,2013-03-15 04:00:00,
2013-03-14 23:01:00,34.5,26.1,29.29,South,180,1.6,1.6,71,0.00,,---,0.00,VWS V14.01,2013-03-15 04:01:00,
2013-03-14 23:02:00,34.5,26.1,29.29,SSE,158,0.9,1.6,71,0.00,,---,0.00,VWS V14.01,2013-03-15 04:02:00,
2013-03-14 23:03:00,34.5,26.1,29.29,South,180,0.0,0.9,71,0.00,,---,0.00,VWS V14.01,2013-03-15 04:03:00,
2013-03-14 23:04:00,34.5,26.1,29.29,SSE,158,2.5,2.5,71,0.00,,---,0.00,VWS V14.01,2013-03-15 04:04:00,
2013-03-14 23:05:00,34.5,26.1,29.29,South,180,2.9,2.9,71,0.00,,---,0.00,VWS V14.01,2013-03-15 04:05:00,
2013-03-14 23:06:00,34.5,26.1,29.29,SSE,158,3.6,3.6,71,0.00,,---,0.00,VWS V14.01,2013-03-15 04:06:00,
2013-03-14 23:07:00,34.5,26.1,29.29,SSW,202,4.3,4.3,71,0.00,,---,0.00,VWS V14.01,2013-03-15 04:07:00,
2013-03-14 23:08:00,34.5,26.1,29.29,SSE,158,2.9,4.3,71,0.00,,---,0.00,VWS V14.01,2013-03-15 04:08:00,
2013-03-14 23:09:00,34.3,25.9,29.29,South,180,2.0,2.9,71,0.00,,---,0.00,VWS V14.01,2013-03-15 04:09:00,
2013-03-14 23:10:00,34.3,25.9,29.29,SSW,202,2.9,2.9,71,0.00,,---,0.00,VWS V14.01,2013-03-15 04:10:00,
2013-03-14 23:11:00,34.3,25.9,29.26,WSW,248,3.1,3.1,71,0.00,,---,0.00,VWS V14.01,2013-03-15 04:11:00,
2013-03-14 23:12:00,34.3,25.9,29.26,WSW,248,3.1,3.1,71,0.00,,---,0.00,VWS V14.01,2013-03-15 04:12:00,
2013-03-14 23:13:00,34.3,25.9,29.26,South,180,3.1,3.1,71,0.00,,---,0.00,VWS V14.01,2013-03-15 04:13:00,
2013-03-14 23:14:00,34.3,25.9,29.26,SSE,158,2.5,3.1,71,0.00,,---,0.00,VWS V14.01,2013-03-15 04:14:00,
2013-03-14 23:15:00,34.3,25.9,29.26,SSW,202,3.6,3.6,71,0.00,,---,0.00,VWS V14.01,2013-03-15 04:15:00,
2013-03-14 23:16:00,34.3,25.9,29.26,South,180,2.5,2.5,71,0.00,,---,0.00,VWS V14.01,2013-03-15 04:16:00,
2013-03-14 23:17:00,34.3,25.9,29.26,South,180,3.6,3.6,71,0.00,,---,0.00,VWS V14.01,2013-03-15 04:17:00,
2013-03-14 23:18:00,34.2,25.8,29.26,SSW,202,2.7,3.6,71,0.00,,---,0.00,VWS V14.01,2013-03-15 04:18:00,
2013-03-14 23:19:00,34.2,25.8,29.26,SE,135,3.8,3.8,71,0.00,,---,0.00,VWS V14.01,2013-03-15 04:19:00,
2013-03-14 23:20:00,34.2,25.8,29.26,South,180,3.8,3.8,71,0.00,,---,0.00,VWS V14.01,2013-03-15 04:20:00,
2013-03-14 23:21:00,34.2,25.8,29.26,SE,135,1.6,3.8,71,0.00,,---,0.00,VWS V14.01,2013-03-15 04:21:00,
2013-03-14 23:22:00,34.2,25.8,29.26,SE,135,1.6,1.6,71,0.00,,---,0.00,VWS V14.01,2013-03-15 04:22:00,
2013-03-14 23:23:00,34.2,26.1,29.26,South,180,0.9,2.0,72,0.00,,---,0.00,VWS V14.01,2013-03-15 04:23:00,
2013-03-14 23:24:00,34.2,26.1,29.26,South,180,3.4,3.4,72,0.00,,---,0.00,VWS V14.01,2013-03-15 04:24:00,
2013-03-14 23:25:00,34.2,26.1,29.26,SSE,158,2.7,3.4,72,0.00,,---,0.00,VWS V14.01,2013-03-15 04:25:00,
2013-03-14 23:26:00,34.2,26.1,29.26,SW,225,2.7,2.7,72,0.00,,---,0.00,VWS V14.01,2013-03-15 04:26:00,
2013-03-14 23:27:00,34.2,26.1,29.26,SE,135,1.6,2.7,72,0.00,,---,0.00,VWS V14.01,2013-03-15 04:27:00,
2013-03-14 23:28:00,34.2,26.1,29.26,SSW,202,1.6,1.6,72,0.00,,---,0.00,VWS V14.01,2013-03-15 04:28:00,
2013-03-14 23:29:00,34.0,25.9,29.26,SSW,202,2.0,2.0,72,0.00,,---,0.00,VWS V14.01,2013-03-15 04:29:00,
2013-03-14 23:30:00,34.0,25.9,29.26,SSE,158,0.9,2.0,72,0.00,,---,0.00,VWS V14.01,2013-03-15 04:30:00,
2013-03-14 23:31:00,34.0,25.9,29.26,SSW,202,2.5,2.5,72,0.00,,---,0.00,VWS V14.01,2013-03-15 04:31:00,
2013-03-14 23:32:00,34.0,25.9,29.26,SSW,202,3.8,3.8,72,0.00,,---,0.00,VWS V14.01,2013-03-15 04:32:00,
2013-03-14 23:33:00,34.0,25.9,29.26,South,180,2.7,3.8,72,0.00,,---,0.00,VWS V14.01,2013-03-15 04:33:00,
2013-03-14 23:34:00,34.0,25.9,29.26,South,180,2.5,2.7,72,0.00,,---,0.00,VWS V14.01,2013-03-15 04:34:00,
2013-03-14 23:35:00,34.0,25.9,29.26,South,180,1.3,2.5,72,0.00,,---,0.00,VWS V14.01,2013-03-15 04:35:00,
2013-03-14 23:36:00,34.0,25.9,29.26,ESE,112,1.3,1.3,72,0.00,,---,0.00,VWS V14.01,2013-03-15 04:36:00,
2013-03-14 23:37:00,33.8,25.7,29.26,South,180,2.0,2.0,72,0.00,,---,0.00,VWS V14.01,2013-03-15 04:37:00,
2013-03-14 23:38:00,33.8,25.8,29.26,SSE,158,0.0,2.0,72,0.00,,---,0.00,VWS V14.01,2013-03-15 04:38:00,
2013-03-14 23:39:00,33.8,25.8,29.26,South,180,1.6,1.6,72,0.00,,---,0.00,VWS V14.01,2013-03-15 04:39:00,
2013-03-14 23:40:00,33.8,25.8,29.26,South,180,2.2,2.2,72,0.00,,---,0.00,VWS V14.01,2013-03-15 04:40:00,
2013-03-14 23:41:00,33.8,25.8,29.26,SSE,158,2.7,2.7,72,0.00,,---,0.00,VWS V14.01,2013-03-15 04:41:00,
2013-03-14 23:42:00,33.8,25.7,29.26,SSW,202,3.6,3.6,72,0.00,,---,0.00,VWS V14.01,2013-03-15 04:42:00,
2013-03-14 23:43:00,33.8,25.8,29.26,SE,135,2.7,3.6,72,0.00,,---,0.00,VWS V14.01,2013-03-15 04:43:00,
2013-03-14 23:44:00,33.8,25.8,29.26,South,180,4.0,4.0,72,0.00,,---,0.00,VWS V14.01,2013-03-15 04:44:00,
2013-03-14 23:45:00,33.8,25.8,29.26,South,180,3.4,4.0,72,0.00,,---,0.00,VWS V14.01,2013-03-15 04:45:00,
2013-03-14 23:46:00,33.8,25.8,29.26,South,180,3.4,3.4,72,0.00,,---,0.00,VWS V14.01,2013-03-15 04:46:00,
2013-03-14 23:47:00,33.8,25.7,29.26,South,180,2.0,3.4,72,0.00,,---,0.00,VWS V14.01,2013-03-15 04:47:00,
2013-03-14 23:48:00,33.6,25.9,29.26,South,180,2.0,3.4,73,0.00,,---,0.00,VWS V14.01,2013-03-15 04:48:00,
2013-03-14 23:49:00,33.6,25.9,29.26,SSW,202,4.5,4.5,73,0.00,,---,0.00,VWS V14.01,2013-03-15 04:49:00,
2013-03-14 23:50:00,33.6,25.9,29.26,SSE,158,1.3,4.5,73,0.00,,---,0.00,VWS V14.01,2013-03-15 04:50:00,
2013-03-14 23:51:00,33.6,25.9,29.26,South,180,1.6,1.6,73,0.00,,---,0.00,VWS V14.01,2013-03-15 04:51:00,
2013-03-14 23:52:00,33.6,25.9,29.26,South,180,3.8,3.8,73,0.00,,---,0.00,VWS V14.01,2013-03-15 04:52:00,
2013-03-14 23:53:00,33.6,25.9,29.26,SSW,202,2.7,3.8,73,0.00,,---,0.00,VWS V14.01,2013-03-15 04:53:00,
2013-03-14 23:54:00,33.6,25.9,29.26,SSE,158,2.5,2.7,73,0.00,,---,0.00,VWS V14.01,2013-03-15 04:54:00,
2013-03-14 23:55:00,33.6,25.9,29.26,SE,135,2.0,2.5,73,0.00,,---,0.00,VWS V14.01,2013-03-15 04:55:00,
2013-03-14 23:56:00,33.6,25.9,29.26,South,180,3.4,3.4,73,0.00,,---,0.00,VWS V14.01,2013-03-15 04:56:00,
2013-03-14 23:57:00,33.6,25.9,29.26,South,180,2.9,3.4,73,0.00,,---,0.00,VWS V14.01,2013-03-15 04:57:00,
2013-03-14 23:58:00,33.6,25.9,29.26,South,180,2.9,2.9,73,0.00,,---,0.00,VWS V14.01,2013-03-15 04:58:00,
2013-03-14 23:59:00,33.6,25.9,29.26,South,180,4.3,4.3,73,0.00,,---,0.00,VWS V14.01,2013-03-15 04:59:00,